<?xml version="1.0" encoding="utf-8"?>
<gpx xmlns:xsi="http://www.w3.org/2001/XMLSchema-instance" xmlns:xsd="http://www.w3.org/2001/XMLSchema" version="1.1" creator="Shapelink.com" xmlns="http://www.topografix.com/GPX/1/1" xmlns:gpxtpx="http://www.garmin.com/xmlschemas/TrackPointExtension/v1">
  <metadata>
    <name>Längdskidåkning - Klassisk 13.46 km, 2014-12-20</name>
    <desc></desc>
    <author><name>Alexander Engvall</name></author> 
    <time>2014-12-20T11:58:59Z</time>
  </metadata>
  <trk>
    <name>Längdskidåkning - Klassisk 13.46 km, 2014-12-20</name>
    <trkseg>
      <trkpt lat="61.2108945" lon="14.5336231">
        <ele>463.973</ele>
        <time>2014-12-20T11:58:59Z</time>
      </trkpt>
      <trkpt lat="61.2108273" lon="14.5335215">
        <ele>463.973</ele>
        <time>2014-12-20T11:59:03Z</time>
      </trkpt>
      <trkpt lat="61.2108053" lon="14.5334742">
        <ele>464.454</ele>
        <time>2014-12-20T11:59:04Z</time>
      </trkpt>
      <trkpt lat="61.2107333" lon="14.5330523">
        <ele>464.454</ele>
        <time>2014-12-20T11:59:09Z</time>
      </trkpt>
      <trkpt lat="61.2106819" lon="14.5325452">
        <ele>463.973</ele>
        <time>2014-12-20T11:59:15Z</time>
      </trkpt>
      <trkpt lat="61.2106497" lon="14.5321821">
        <ele>463.493</ele>
        <time>2014-12-20T11:59:19Z</time>
      </trkpt>
      <trkpt lat="61.210623" lon="14.5319508">
        <ele>463.973</ele>
        <time>2014-12-20T11:59:22Z</time>
      </trkpt>
      <trkpt lat="61.2105891" lon="14.5316964">
        <ele>466.377</ele>
        <time>2014-12-20T11:59:28Z</time>
      </trkpt>
      <trkpt lat="61.2106027" lon="14.5316599">
        <ele>465.416</ele>
        <time>2014-12-20T11:59:32Z</time>
      </trkpt>
      <trkpt lat="61.2105953" lon="14.5314954">
        <ele>465.896</ele>
        <time>2014-12-20T11:59:36Z</time>
      </trkpt>
      <trkpt lat="61.210568" lon="14.5311749">
        <ele>466.857</ele>
        <time>2014-12-20T11:59:42Z</time>
      </trkpt>
      <trkpt lat="61.2105457" lon="14.5309253">
        <ele>466.857</ele>
        <time>2014-12-20T11:59:47Z</time>
      </trkpt>
      <trkpt lat="61.2105115" lon="14.5307141">
        <ele>468.78</ele>
        <time>2014-12-20T11:59:52Z</time>
      </trkpt>
      <trkpt lat="61.2105046" lon="14.5305953">
        <ele>468.78</ele>
        <time>2014-12-20T11:59:56Z</time>
      </trkpt>
      <trkpt lat="61.2104893" lon="14.5304628">
        <ele>468.78</ele>
        <time>2014-12-20T12:00:00Z</time>
      </trkpt>
      <trkpt lat="61.2104559" lon="14.5303855">
        <ele>467.819</ele>
        <time>2014-12-20T12:00:05Z</time>
      </trkpt>
      <trkpt lat="61.2104074" lon="14.5302688">
        <ele>467.338</ele>
        <time>2014-12-20T12:00:09Z</time>
      </trkpt>
      <trkpt lat="61.2103933" lon="14.5301965">
        <ele>466.857</ele>
        <time>2014-12-20T12:00:11Z</time>
      </trkpt>
      <trkpt lat="61.2104055" lon="14.5300695">
        <ele>465.896</ele>
        <time>2014-12-20T12:00:16Z</time>
      </trkpt>
      <trkpt lat="61.2104091" lon="14.5300809">
        <ele>464.935</ele>
        <time>2014-12-20T12:00:20Z</time>
      </trkpt>
      <trkpt lat="61.2104125" lon="14.5300849">
        <ele>463.493</ele>
        <time>2014-12-20T12:00:25Z</time>
      </trkpt>
      <trkpt lat="61.2104205" lon="14.5300707">
        <ele>463.012</ele>
        <time>2014-12-20T12:00:26Z</time>
      </trkpt>
      <trkpt lat="61.2104811" lon="14.5299539">
        <ele>461.57</ele>
        <time>2014-12-20T12:00:31Z</time>
      </trkpt>
      <trkpt lat="61.2105432" lon="14.5298385">
        <ele>460.128</ele>
        <time>2014-12-20T12:00:36Z</time>
      </trkpt>
      <trkpt lat="61.2106074" lon="14.5297334">
        <ele>458.686</ele>
        <time>2014-12-20T12:00:41Z</time>
      </trkpt>
      <trkpt lat="61.210666" lon="14.5295893">
        <ele>457.725</ele>
        <time>2014-12-20T12:00:46Z</time>
      </trkpt>
      <trkpt lat="61.2106802" lon="14.5295655">
        <ele>457.244</ele>
        <time>2014-12-20T12:00:47Z</time>
      </trkpt>
      <trkpt lat="61.2107893" lon="14.5294247">
        <ele>455.322</ele>
        <time>2014-12-20T12:00:52Z</time>
      </trkpt>
      <trkpt lat="61.2109021" lon="14.529345">
        <ele>453.399</ele>
        <time>2014-12-20T12:00:56Z</time>
      </trkpt>
      <trkpt lat="61.2110212" lon="14.5292804">
        <ele>451.476</ele>
        <time>2014-12-20T12:01:01Z</time>
      </trkpt>
      <trkpt lat="61.2111187" lon="14.5291962">
        <ele>450.515</ele>
        <time>2014-12-20T12:01:05Z</time>
      </trkpt>
      <trkpt lat="61.211202" lon="14.5291143">
        <ele>450.034</ele>
        <time>2014-12-20T12:01:08Z</time>
      </trkpt>
      <trkpt lat="61.211346" lon="14.528946">
        <ele>449.073</ele>
        <time>2014-12-20T12:01:12Z</time>
      </trkpt>
      <trkpt lat="61.2115724" lon="14.5287191">
        <ele>447.631</ele>
        <time>2014-12-20T12:01:17Z</time>
      </trkpt>
      <trkpt lat="61.2118512" lon="14.5284389">
        <ele>448.592</ele>
        <time>2014-12-20T12:01:23Z</time>
      </trkpt>
      <trkpt lat="61.2119826" lon="14.528315">
        <ele>448.112</ele>
        <time>2014-12-20T12:01:27Z</time>
      </trkpt>
      <trkpt lat="61.2121105" lon="14.5281932">
        <ele>447.631</ele>
        <time>2014-12-20T12:01:32Z</time>
      </trkpt>
      <trkpt lat="61.2122536" lon="14.528059">
        <ele>448.592</ele>
        <time>2014-12-20T12:01:38Z</time>
      </trkpt>
      <trkpt lat="61.2123509" lon="14.5279554">
        <ele>448.592</ele>
        <time>2014-12-20T12:01:42Z</time>
      </trkpt>
      <trkpt lat="61.2124457" lon="14.5278488">
        <ele>449.073</ele>
        <time>2014-12-20T12:01:46Z</time>
      </trkpt>
      <trkpt lat="61.2125323" lon="14.5277359">
        <ele>449.073</ele>
        <time>2014-12-20T12:01:50Z</time>
      </trkpt>
      <trkpt lat="61.212551" lon="14.5277012">
        <ele>450.515</ele>
        <time>2014-12-20T12:01:58Z</time>
      </trkpt>
      <trkpt lat="61.2124546" lon="14.5277976">
        <ele>451.476</ele>
        <time>2014-12-20T12:02:02Z</time>
      </trkpt>
      <trkpt lat="61.2124287" lon="14.5278203">
        <ele>451.957</ele>
        <time>2014-12-20T12:02:03Z</time>
      </trkpt>
      <trkpt lat="61.2123976" lon="14.5278495">
        <ele>451.476</ele>
        <time>2014-12-20T12:02:05Z</time>
      </trkpt>
      <trkpt lat="61.212426" lon="14.5278544">
        <ele>451.476</ele>
        <time>2014-12-20T12:02:09Z</time>
      </trkpt>
      <trkpt lat="61.2126048" lon="14.5277008">
        <ele>450.996</ele>
        <time>2014-12-20T12:02:15Z</time>
      </trkpt>
      <trkpt lat="61.2127607" lon="14.5275515">
        <ele>451.957</ele>
        <time>2014-12-20T12:02:20Z</time>
      </trkpt>
      <trkpt lat="61.2129541" lon="14.5273541">
        <ele>450.996</ele>
        <time>2014-12-20T12:02:26Z</time>
      </trkpt>
      <trkpt lat="61.2131669" lon="14.5271324">
        <ele>450.515</ele>
        <time>2014-12-20T12:02:31Z</time>
      </trkpt>
      <trkpt lat="61.2134822" lon="14.5268252">
        <ele>450.034</ele>
        <time>2014-12-20T12:02:38Z</time>
      </trkpt>
      <trkpt lat="61.2135449" lon="14.5267587">
        <ele>450.996</ele>
        <time>2014-12-20T12:02:40Z</time>
      </trkpt>
      <trkpt lat="61.2136398" lon="14.5266642">
        <ele>451.957</ele>
        <time>2014-12-20T12:02:45Z</time>
      </trkpt>
      <trkpt lat="61.2137056" lon="14.5266164">
        <ele>453.399</ele>
        <time>2014-12-20T12:02:49Z</time>
      </trkpt>
      <trkpt lat="61.2137784" lon="14.5264967">
        <ele>455.322</ele>
        <time>2014-12-20T12:02:54Z</time>
      </trkpt>
      <trkpt lat="61.2138481" lon="14.5264291">
        <ele>457.244</ele>
        <time>2014-12-20T12:02:58Z</time>
      </trkpt>
      <trkpt lat="61.2139284" lon="14.5263596">
        <ele>458.686</ele>
        <time>2014-12-20T12:03:03Z</time>
      </trkpt>
      <trkpt lat="61.2139506" lon="14.5263392">
        <ele>458.686</ele>
        <time>2014-12-20T12:03:04Z</time>
      </trkpt>
      <trkpt lat="61.2140661" lon="14.5262414">
        <ele>459.648</ele>
        <time>2014-12-20T12:03:09Z</time>
      </trkpt>
      <trkpt lat="61.2141491" lon="14.5261678">
        <ele>460.609</ele>
        <time>2014-12-20T12:03:13Z</time>
      </trkpt>
      <trkpt lat="61.2142168" lon="14.5261052">
        <ele>461.57</ele>
        <time>2014-12-20T12:03:17Z</time>
      </trkpt>
      <trkpt lat="61.2142949" lon="14.526043">
        <ele>461.57</ele>
        <time>2014-12-20T12:03:21Z</time>
      </trkpt>
      <trkpt lat="61.2144375" lon="14.5259467">
        <ele>462.051</ele>
        <time>2014-12-20T12:03:28Z</time>
      </trkpt>
      <trkpt lat="61.2145211" lon="14.5258891">
        <ele>463.012</ele>
        <time>2014-12-20T12:03:32Z</time>
      </trkpt>
      <trkpt lat="61.2146081" lon="14.5258327">
        <ele>462.531</ele>
        <time>2014-12-20T12:03:36Z</time>
      </trkpt>
      <trkpt lat="61.2146785" lon="14.5257872">
        <ele>463.493</ele>
        <time>2014-12-20T12:03:39Z</time>
      </trkpt>
      <trkpt lat="61.2147842" lon="14.525726">
        <ele>463.973</ele>
        <time>2014-12-20T12:03:44Z</time>
      </trkpt>
      <trkpt lat="61.2148856" lon="14.5256732">
        <ele>463.012</ele>
        <time>2014-12-20T12:03:50Z</time>
      </trkpt>
      <trkpt lat="61.2149847" lon="14.5255829">
        <ele>461.089</ele>
        <time>2014-12-20T12:03:54Z</time>
      </trkpt>
      <trkpt lat="61.2151348" lon="14.5254836">
        <ele>460.609</ele>
        <time>2014-12-20T12:03:59Z</time>
      </trkpt>
      <trkpt lat="61.2153016" lon="14.5253799">
        <ele>458.686</ele>
        <time>2014-12-20T12:04:05Z</time>
      </trkpt>
      <trkpt lat="61.2154626" lon="14.5252769">
        <ele>457.725</ele>
        <time>2014-12-20T12:04:11Z</time>
      </trkpt>
      <trkpt lat="61.215586" lon="14.5251655">
        <ele>457.244</ele>
        <time>2014-12-20T12:04:15Z</time>
      </trkpt>
      <trkpt lat="61.2157295" lon="14.5250514">
        <ele>455.802</ele>
        <time>2014-12-20T12:04:19Z</time>
      </trkpt>
      <trkpt lat="61.2158957" lon="14.5249672">
        <ele>457.244</ele>
        <time>2014-12-20T12:04:23Z</time>
      </trkpt>
      <trkpt lat="61.2160715" lon="14.5248562">
        <ele>458.686</ele>
        <time>2014-12-20T12:04:28Z</time>
      </trkpt>
      <trkpt lat="61.2162046" lon="14.5247528">
        <ele>461.089</ele>
        <time>2014-12-20T12:04:33Z</time>
      </trkpt>
      <trkpt lat="61.216319" lon="14.5246367">
        <ele>462.531</ele>
        <time>2014-12-20T12:04:38Z</time>
      </trkpt>
      <trkpt lat="61.2164169" lon="14.5245588">
        <ele>463.493</ele>
        <time>2014-12-20T12:04:42Z</time>
      </trkpt>
      <trkpt lat="61.2165147" lon="14.524489">
        <ele>463.493</ele>
        <time>2014-12-20T12:04:46Z</time>
      </trkpt>
      <trkpt lat="61.2165894" lon="14.5244287">
        <ele>463.493</ele>
        <time>2014-12-20T12:04:49Z</time>
      </trkpt>
      <trkpt lat="61.2166671" lon="14.5243287">
        <ele>463.973</ele>
        <time>2014-12-20T12:04:53Z</time>
      </trkpt>
      <trkpt lat="61.2167029" lon="14.5242694">
        <ele>463.973</ele>
        <time>2014-12-20T12:04:55Z</time>
      </trkpt>
      <trkpt lat="61.2167986" lon="14.5241741">
        <ele>464.935</ele>
        <time>2014-12-20T12:04:59Z</time>
      </trkpt>
      <trkpt lat="61.2168827" lon="14.5240398">
        <ele>466.377</ele>
        <time>2014-12-20T12:05:03Z</time>
      </trkpt>
      <trkpt lat="61.2170003" lon="14.5238356">
        <ele>467.338</ele>
        <time>2014-12-20T12:05:08Z</time>
      </trkpt>
      <trkpt lat="61.2171409" lon="14.5235686">
        <ele>468.299</ele>
        <time>2014-12-20T12:05:13Z</time>
      </trkpt>
      <trkpt lat="61.2172597" lon="14.5233634">
        <ele>470.222</ele>
        <time>2014-12-20T12:05:18Z</time>
      </trkpt>
      <trkpt lat="61.2173539" lon="14.523235">
        <ele>470.703</ele>
        <time>2014-12-20T12:05:22Z</time>
      </trkpt>
      <trkpt lat="61.2174146" lon="14.5230594">
        <ele>472.145</ele>
        <time>2014-12-20T12:05:26Z</time>
      </trkpt>
      <trkpt lat="61.2174861" lon="14.5229146">
        <ele>472.625</ele>
        <time>2014-12-20T12:05:30Z</time>
      </trkpt>
      <trkpt lat="61.2175508" lon="14.5227683">
        <ele>473.106</ele>
        <time>2014-12-20T12:05:34Z</time>
      </trkpt>
      <trkpt lat="61.2176865" lon="14.5224587">
        <ele>470.222</ele>
        <time>2014-12-20T12:06:37Z</time>
      </trkpt>
      <trkpt lat="61.217702" lon="14.5224388">
        <ele>470.222</ele>
        <time>2014-12-20T12:06:38Z</time>
      </trkpt>
      <trkpt lat="61.2178" lon="14.5222734">
        <ele>468.78</ele>
        <time>2014-12-20T12:06:42Z</time>
      </trkpt>
      <trkpt lat="61.2179443" lon="14.5220395">
        <ele>467.338</ele>
        <time>2014-12-20T12:06:46Z</time>
      </trkpt>
      <trkpt lat="61.2182316" lon="14.5215394">
        <ele>463.973</ele>
        <time>2014-12-20T12:06:52Z</time>
      </trkpt>
      <trkpt lat="61.2185904" lon="14.5208661">
        <ele>461.57</ele>
        <time>2014-12-20T12:06:59Z</time>
      </trkpt>
      <trkpt lat="61.2187495" lon="14.5205791">
        <ele>462.531</ele>
        <time>2014-12-20T12:07:03Z</time>
      </trkpt>
      <trkpt lat="61.2188609" lon="14.5203263">
        <ele>464.935</ele>
        <time>2014-12-20T12:07:08Z</time>
      </trkpt>
      <trkpt lat="61.2188819" lon="14.520288">
        <ele>464.935</ele>
        <time>2014-12-20T12:07:09Z</time>
      </trkpt>
      <trkpt lat="61.2189692" lon="14.5200973">
        <ele>465.416</ele>
        <time>2014-12-20T12:07:14Z</time>
      </trkpt>
      <trkpt lat="61.2190161" lon="14.5200077">
        <ele>466.377</ele>
        <time>2014-12-20T12:07:17Z</time>
      </trkpt>
      <trkpt lat="61.219027" lon="14.5199653">
        <ele>465.896</ele>
        <time>2014-12-20T12:07:22Z</time>
      </trkpt>
      <trkpt lat="61.2190551" lon="14.5199101">
        <ele>465.416</ele>
        <time>2014-12-20T12:07:28Z</time>
      </trkpt>
      <trkpt lat="61.219096" lon="14.5198281">
        <ele>465.896</ele>
        <time>2014-12-20T12:07:32Z</time>
      </trkpt>
      <trkpt lat="61.2191432" lon="14.5197138">
        <ele>466.377</ele>
        <time>2014-12-20T12:07:37Z</time>
      </trkpt>
      <trkpt lat="61.2191934" lon="14.5196063">
        <ele>466.377</ele>
        <time>2014-12-20T12:07:42Z</time>
      </trkpt>
      <trkpt lat="61.2192047" lon="14.5195845">
        <ele>466.377</ele>
        <time>2014-12-20T12:07:43Z</time>
      </trkpt>
      <trkpt lat="61.2192706" lon="14.5194028">
        <ele>466.377</ele>
        <time>2014-12-20T12:07:49Z</time>
      </trkpt>
      <trkpt lat="61.2193408" lon="14.5192046">
        <ele>467.819</ele>
        <time>2014-12-20T12:07:54Z</time>
      </trkpt>
      <trkpt lat="61.219397" lon="14.5190245">
        <ele>467.819</ele>
        <time>2014-12-20T12:07:59Z</time>
      </trkpt>
      <trkpt lat="61.2194518" lon="14.5188741">
        <ele>468.299</ele>
        <time>2014-12-20T12:08:03Z</time>
      </trkpt>
      <trkpt lat="61.2195058" lon="14.5186924">
        <ele>469.261</ele>
        <time>2014-12-20T12:08:08Z</time>
      </trkpt>
      <trkpt lat="61.2195927" lon="14.5184374">
        <ele>469.741</ele>
        <time>2014-12-20T12:08:13Z</time>
      </trkpt>
      <trkpt lat="61.2196564" lon="14.5182176">
        <ele>469.741</ele>
        <time>2014-12-20T12:08:19Z</time>
      </trkpt>
      <trkpt lat="61.2197114" lon="14.5180652">
        <ele>469.741</ele>
        <time>2014-12-20T12:08:24Z</time>
      </trkpt>
      <trkpt lat="61.2197923" lon="14.5178409">
        <ele>468.299</ele>
        <time>2014-12-20T12:08:29Z</time>
      </trkpt>
      <trkpt lat="61.219864" lon="14.5176367">
        <ele>466.857</ele>
        <time>2014-12-20T12:08:33Z</time>
      </trkpt>
      <trkpt lat="61.2199569" lon="14.5173885">
        <ele>465.416</ele>
        <time>2014-12-20T12:08:38Z</time>
      </trkpt>
      <trkpt lat="61.2200155" lon="14.5172016">
        <ele>464.454</ele>
        <time>2014-12-20T12:08:41Z</time>
      </trkpt>
      <trkpt lat="61.2201024" lon="14.5169333">
        <ele>463.493</ele>
        <time>2014-12-20T12:08:45Z</time>
      </trkpt>
      <trkpt lat="61.2201833" lon="14.5166296">
        <ele>462.531</ele>
        <time>2014-12-20T12:08:49Z</time>
      </trkpt>
      <trkpt lat="61.2202748" lon="14.5164158">
        <ele>461.57</ele>
        <time>2014-12-20T12:08:53Z</time>
      </trkpt>
      <trkpt lat="61.2203509" lon="14.5162502">
        <ele>461.089</ele>
        <time>2014-12-20T12:08:57Z</time>
      </trkpt>
      <trkpt lat="61.2204413" lon="14.5160781">
        <ele>460.609</ele>
        <time>2014-12-20T12:09:01Z</time>
      </trkpt>
      <trkpt lat="61.2205371" lon="14.5159373">
        <ele>459.648</ele>
        <time>2014-12-20T12:09:05Z</time>
      </trkpt>
      <trkpt lat="61.2206315" lon="14.5158314">
        <ele>459.167</ele>
        <time>2014-12-20T12:09:09Z</time>
      </trkpt>
      <trkpt lat="61.2207009" lon="14.5157543">
        <ele>459.648</ele>
        <time>2014-12-20T12:09:12Z</time>
      </trkpt>
      <trkpt lat="61.2208785" lon="14.5156257">
        <ele>460.128</ele>
        <time>2014-12-20T12:09:19Z</time>
      </trkpt>
      <trkpt lat="61.2210044" lon="14.5155578">
        <ele>461.089</ele>
        <time>2014-12-20T12:09:24Z</time>
      </trkpt>
      <trkpt lat="61.2211761" lon="14.5154901">
        <ele>463.012</ele>
        <time>2014-12-20T12:09:31Z</time>
      </trkpt>
      <trkpt lat="61.2212872" lon="14.5154478">
        <ele>463.012</ele>
        <time>2014-12-20T12:09:37Z</time>
      </trkpt>
      <trkpt lat="61.2213876" lon="14.5154316">
        <ele>463.012</ele>
        <time>2014-12-20T12:09:41Z</time>
      </trkpt>
      <trkpt lat="61.2214961" lon="14.5154062">
        <ele>463.493</ele>
        <time>2014-12-20T12:09:45Z</time>
      </trkpt>
      <trkpt lat="61.2216259" lon="14.5153757">
        <ele>464.935</ele>
        <time>2014-12-20T12:09:50Z</time>
      </trkpt>
      <trkpt lat="61.2217081" lon="14.5153575">
        <ele>465.896</ele>
        <time>2014-12-20T12:09:54Z</time>
      </trkpt>
      <trkpt lat="61.2218388" lon="14.5153222">
        <ele>465.896</ele>
        <time>2014-12-20T12:09:59Z</time>
      </trkpt>
      <trkpt lat="61.222029" lon="14.5152472">
        <ele>465.416</ele>
        <time>2014-12-20T12:10:06Z</time>
      </trkpt>
      <trkpt lat="61.2221868" lon="14.515185">
        <ele>463.973</ele>
        <time>2014-12-20T12:10:11Z</time>
      </trkpt>
      <trkpt lat="61.2223486" lon="14.5150902">
        <ele>462.051</ele>
        <time>2014-12-20T12:10:16Z</time>
      </trkpt>
      <trkpt lat="61.2224774" lon="14.5149947">
        <ele>463.012</ele>
        <time>2014-12-20T12:10:21Z</time>
      </trkpt>
      <trkpt lat="61.2225865" lon="14.5149012">
        <ele>463.493</ele>
        <time>2014-12-20T12:10:26Z</time>
      </trkpt>
      <trkpt lat="61.2226924" lon="14.5147785">
        <ele>463.493</ele>
        <time>2014-12-20T12:10:31Z</time>
      </trkpt>
      <trkpt lat="61.222808" lon="14.5146422">
        <ele>463.493</ele>
        <time>2014-12-20T12:10:37Z</time>
      </trkpt>
      <trkpt lat="61.2228869" lon="14.514548">
        <ele>463.012</ele>
        <time>2014-12-20T12:10:41Z</time>
      </trkpt>
      <trkpt lat="61.2229718" lon="14.514448">
        <ele>462.531</ele>
        <time>2014-12-20T12:10:45Z</time>
      </trkpt>
      <trkpt lat="61.2230396" lon="14.5143656">
        <ele>462.531</ele>
        <time>2014-12-20T12:10:48Z</time>
      </trkpt>
      <trkpt lat="61.2231298" lon="14.5142537">
        <ele>461.57</ele>
        <time>2014-12-20T12:10:52Z</time>
      </trkpt>
      <trkpt lat="61.2232332" lon="14.5141165">
        <ele>461.089</ele>
        <time>2014-12-20T12:10:56Z</time>
      </trkpt>
      <trkpt lat="61.223339" lon="14.5139713">
        <ele>460.128</ele>
        <time>2014-12-20T12:11:01Z</time>
      </trkpt>
      <trkpt lat="61.2234181" lon="14.5138637">
        <ele>460.128</ele>
        <time>2014-12-20T12:11:05Z</time>
      </trkpt>
      <trkpt lat="61.2235212" lon="14.5137465">
        <ele>460.128</ele>
        <time>2014-12-20T12:11:10Z</time>
      </trkpt>
      <trkpt lat="61.2236099" lon="14.5136238">
        <ele>460.609</ele>
        <time>2014-12-20T12:11:14Z</time>
      </trkpt>
      <trkpt lat="61.2237211" lon="14.5134858">
        <ele>461.57</ele>
        <time>2014-12-20T12:11:19Z</time>
      </trkpt>
      <trkpt lat="61.2237426" lon="14.5134591">
        <ele>461.57</ele>
        <time>2014-12-20T12:11:20Z</time>
      </trkpt>
      <trkpt lat="61.2238249" lon="14.5133637">
        <ele>461.57</ele>
        <time>2014-12-20T12:11:24Z</time>
      </trkpt>
      <trkpt lat="61.2238969" lon="14.5132814">
        <ele>461.57</ele>
        <time>2014-12-20T12:11:28Z</time>
      </trkpt>
      <trkpt lat="61.2239876" lon="14.5131705">
        <ele>461.57</ele>
        <time>2014-12-20T12:11:32Z</time>
      </trkpt>
      <trkpt lat="61.2240772" lon="14.5130575">
        <ele>461.57</ele>
        <time>2014-12-20T12:11:36Z</time>
      </trkpt>
      <trkpt lat="61.2241347" lon="14.5129773">
        <ele>462.531</ele>
        <time>2014-12-20T12:11:41Z</time>
      </trkpt>
      <trkpt lat="61.2241661" lon="14.5129426">
        <ele>463.012</ele>
        <time>2014-12-20T12:11:44Z</time>
      </trkpt>
      <trkpt lat="61.2241848" lon="14.5129">
        <ele>464.454</ele>
        <time>2014-12-20T12:12:00Z</time>
      </trkpt>
      <trkpt lat="61.2242628" lon="14.5127903">
        <ele>463.493</ele>
        <time>2014-12-20T12:12:04Z</time>
      </trkpt>
      <trkpt lat="61.2243835" lon="14.5126365">
        <ele>463.012</ele>
        <time>2014-12-20T12:12:09Z</time>
      </trkpt>
      <trkpt lat="61.2244833" lon="14.5125171">
        <ele>463.012</ele>
        <time>2014-12-20T12:12:13Z</time>
      </trkpt>
      <trkpt lat="61.2246066" lon="14.5123656">
        <ele>463.493</ele>
        <time>2014-12-20T12:12:18Z</time>
      </trkpt>
      <trkpt lat="61.2246878" lon="14.5122698">
        <ele>463.973</ele>
        <time>2014-12-20T12:12:21Z</time>
      </trkpt>
      <trkpt lat="61.22479" lon="14.5121333">
        <ele>464.454</ele>
        <time>2014-12-20T12:12:25Z</time>
      </trkpt>
      <trkpt lat="61.2249097" lon="14.5119716">
        <ele>464.454</ele>
        <time>2014-12-20T12:12:30Z</time>
      </trkpt>
      <trkpt lat="61.2250164" lon="14.5118055">
        <ele>464.454</ele>
        <time>2014-12-20T12:12:34Z</time>
      </trkpt>
      <trkpt lat="61.2251256" lon="14.5116287">
        <ele>464.935</ele>
        <time>2014-12-20T12:12:39Z</time>
      </trkpt>
      <trkpt lat="61.2252176" lon="14.5114627">
        <ele>464.454</ele>
        <time>2014-12-20T12:12:43Z</time>
      </trkpt>
      <trkpt lat="61.2253261" lon="14.5112295">
        <ele>463.973</ele>
        <time>2014-12-20T12:12:47Z</time>
      </trkpt>
      <trkpt lat="61.2254392" lon="14.5110078">
        <ele>464.454</ele>
        <time>2014-12-20T12:12:52Z</time>
      </trkpt>
      <trkpt lat="61.225473" lon="14.5108996">
        <ele>463.493</ele>
        <time>2014-12-20T12:12:56Z</time>
      </trkpt>
      <trkpt lat="61.2255219" lon="14.5107535">
        <ele>463.012</ele>
        <time>2014-12-20T12:13:01Z</time>
      </trkpt>
      <trkpt lat="61.2255999" lon="14.5105246">
        <ele>462.531</ele>
        <time>2014-12-20T12:13:06Z</time>
      </trkpt>
      <trkpt lat="61.225625" lon="14.5104386">
        <ele>462.051</ele>
        <time>2014-12-20T12:13:08Z</time>
      </trkpt>
      <trkpt lat="61.2256794" lon="14.5102706">
        <ele>462.051</ele>
        <time>2014-12-20T12:13:12Z</time>
      </trkpt>
      <trkpt lat="61.2257674" lon="14.5100379">
        <ele>461.57</ele>
        <time>2014-12-20T12:13:18Z</time>
      </trkpt>
      <trkpt lat="61.2258714" lon="14.509739">
        <ele>461.57</ele>
        <time>2014-12-20T12:13:24Z</time>
      </trkpt>
      <trkpt lat="61.2259623" lon="14.5094927">
        <ele>461.57</ele>
        <time>2014-12-20T12:13:30Z</time>
      </trkpt>
      <trkpt lat="61.2260608" lon="14.5092351">
        <ele>461.57</ele>
        <time>2014-12-20T12:13:35Z</time>
      </trkpt>
      <trkpt lat="61.2261487" lon="14.5089767">
        <ele>461.57</ele>
        <time>2014-12-20T12:13:41Z</time>
      </trkpt>
      <trkpt lat="61.2262078" lon="14.5088151">
        <ele>462.051</ele>
        <time>2014-12-20T12:13:45Z</time>
      </trkpt>
      <trkpt lat="61.2263103" lon="14.5085597">
        <ele>461.57</ele>
        <time>2014-12-20T12:13:50Z</time>
      </trkpt>
      <trkpt lat="61.2264241" lon="14.508213">
        <ele>460.609</ele>
        <time>2014-12-20T12:13:55Z</time>
      </trkpt>
      <trkpt lat="61.2265213" lon="14.5078967">
        <ele>460.609</ele>
        <time>2014-12-20T12:13:59Z</time>
      </trkpt>
      <trkpt lat="61.2266541" lon="14.5075196">
        <ele>460.128</ele>
        <time>2014-12-20T12:14:04Z</time>
      </trkpt>
      <trkpt lat="61.2266819" lon="14.5074475">
        <ele>459.648</ele>
        <time>2014-12-20T12:14:05Z</time>
      </trkpt>
      <trkpt lat="61.2267428" lon="14.5072927">
        <ele>459.648</ele>
        <time>2014-12-20T12:14:07Z</time>
      </trkpt>
      <trkpt lat="61.2268454" lon="14.5070496">
        <ele>459.167</ele>
        <time>2014-12-20T12:14:10Z</time>
      </trkpt>
      <trkpt lat="61.2270112" lon="14.5067372">
        <ele>457.725</ele>
        <time>2014-12-20T12:14:14Z</time>
      </trkpt>
      <trkpt lat="61.2271164" lon="14.5064933">
        <ele>456.764</ele>
        <time>2014-12-20T12:14:17Z</time>
      </trkpt>
      <trkpt lat="61.2272956" lon="14.5061811">
        <ele>455.322</ele>
        <time>2014-12-20T12:14:22Z</time>
      </trkpt>
      <trkpt lat="61.2274386" lon="14.5060707">
        <ele>454.36</ele>
        <time>2014-12-20T12:14:27Z</time>
      </trkpt>
      <trkpt lat="61.2275704" lon="14.5060179">
        <ele>458.686</ele>
        <time>2014-12-20T12:15:06Z</time>
      </trkpt>
      <trkpt lat="61.2276007" lon="14.5060008">
        <ele>458.206</ele>
        <time>2014-12-20T12:15:07Z</time>
      </trkpt>
      <trkpt lat="61.2276562" lon="14.5059624">
        <ele>457.725</ele>
        <time>2014-12-20T12:15:08Z</time>
      </trkpt>
      <trkpt lat="61.2278276" lon="14.5058548">
        <ele>456.764</ele>
        <time>2014-12-20T12:15:14Z</time>
      </trkpt>
      <trkpt lat="61.2279493" lon="14.5057786">
        <ele>456.764</ele>
        <time>2014-12-20T12:15:18Z</time>
      </trkpt>
      <trkpt lat="61.2280708" lon="14.5057161">
        <ele>457.725</ele>
        <time>2014-12-20T12:15:22Z</time>
      </trkpt>
      <trkpt lat="61.2281776" lon="14.5056605">
        <ele>457.725</ele>
        <time>2014-12-20T12:15:26Z</time>
      </trkpt>
      <trkpt lat="61.2282809" lon="14.505603">
        <ele>457.725</ele>
        <time>2014-12-20T12:15:30Z</time>
      </trkpt>
      <trkpt lat="61.2284294" lon="14.505561">
        <ele>458.206</ele>
        <time>2014-12-20T12:15:35Z</time>
      </trkpt>
      <trkpt lat="61.2285625" lon="14.5055032">
        <ele>459.167</ele>
        <time>2014-12-20T12:15:39Z</time>
      </trkpt>
      <trkpt lat="61.2287724" lon="14.5053693">
        <ele>460.609</ele>
        <time>2014-12-20T12:15:44Z</time>
      </trkpt>
      <trkpt lat="61.2289599" lon="14.5052635">
        <ele>459.648</ele>
        <time>2014-12-20T12:15:48Z</time>
      </trkpt>
      <trkpt lat="61.2290076" lon="14.5052309">
        <ele>459.167</ele>
        <time>2014-12-20T12:15:49Z</time>
      </trkpt>
      <trkpt lat="61.2291804" lon="14.5051041">
        <ele>456.764</ele>
        <time>2014-12-20T12:15:53Z</time>
      </trkpt>
      <trkpt lat="61.229306" lon="14.505016">
        <ele>454.841</ele>
        <time>2014-12-20T12:15:56Z</time>
      </trkpt>
      <trkpt lat="61.2295369" lon="14.5048953">
        <ele>451.476</ele>
        <time>2014-12-20T12:16:02Z</time>
      </trkpt>
      <trkpt lat="61.22968" lon="14.5048428">
        <ele>449.073</ele>
        <time>2014-12-20T12:16:06Z</time>
      </trkpt>
      <trkpt lat="61.2298816" lon="14.5047161">
        <ele>451.476</ele>
        <time>2014-12-20T12:16:11Z</time>
      </trkpt>
      <trkpt lat="61.2301703" lon="14.5046203">
        <ele>452.918</ele>
        <time>2014-12-20T12:16:18Z</time>
      </trkpt>
      <trkpt lat="61.230237" lon="14.5045866">
        <ele>454.36</ele>
        <time>2014-12-20T12:16:20Z</time>
      </trkpt>
      <trkpt lat="61.2302917" lon="14.504571">
        <ele>454.36</ele>
        <time>2014-12-20T12:16:22Z</time>
      </trkpt>
      <trkpt lat="61.2304035" lon="14.5045778">
        <ele>459.167</ele>
        <time>2014-12-20T12:18:09Z</time>
      </trkpt>
      <trkpt lat="61.2304149" lon="14.5045708">
        <ele>459.167</ele>
        <time>2014-12-20T12:18:10Z</time>
      </trkpt>
      <trkpt lat="61.230498" lon="14.5045273">
        <ele>458.206</ele>
        <time>2014-12-20T12:18:14Z</time>
      </trkpt>
      <trkpt lat="61.2305801" lon="14.5044579">
        <ele>457.725</ele>
        <time>2014-12-20T12:18:18Z</time>
      </trkpt>
      <trkpt lat="61.230707" lon="14.5043905">
        <ele>457.725</ele>
        <time>2014-12-20T12:18:22Z</time>
      </trkpt>
      <trkpt lat="61.2308147" lon="14.5043535">
        <ele>457.725</ele>
        <time>2014-12-20T12:18:25Z</time>
      </trkpt>
      <trkpt lat="61.2308979" lon="14.5042684">
        <ele>457.725</ele>
        <time>2014-12-20T12:18:28Z</time>
      </trkpt>
      <trkpt lat="61.2309952" lon="14.5041963">
        <ele>458.206</ele>
        <time>2014-12-20T12:18:31Z</time>
      </trkpt>
      <trkpt lat="61.2312217" lon="14.5041172">
        <ele>459.167</ele>
        <time>2014-12-20T12:18:37Z</time>
      </trkpt>
      <trkpt lat="61.2312976" lon="14.504092">
        <ele>459.167</ele>
        <time>2014-12-20T12:18:39Z</time>
      </trkpt>
      <trkpt lat="61.231435" lon="14.504053">
        <ele>458.686</ele>
        <time>2014-12-20T12:18:42Z</time>
      </trkpt>
      <trkpt lat="61.2314868" lon="14.5040395">
        <ele>458.206</ele>
        <time>2014-12-20T12:18:43Z</time>
      </trkpt>
      <trkpt lat="61.2316629" lon="14.5040756">
        <ele>458.206</ele>
        <time>2014-12-20T12:18:46Z</time>
      </trkpt>
      <trkpt lat="61.2319426" lon="14.5041623">
        <ele>455.802</ele>
        <time>2014-12-20T12:18:51Z</time>
      </trkpt>
      <trkpt lat="61.2322383" lon="14.5043134">
        <ele>453.399</ele>
        <time>2014-12-20T12:18:56Z</time>
      </trkpt>
      <trkpt lat="61.2324793" lon="14.5044638">
        <ele>451.476</ele>
        <time>2014-12-20T12:19:00Z</time>
      </trkpt>
      <trkpt lat="61.2327838" lon="14.5046312">
        <ele>448.112</ele>
        <time>2014-12-20T12:19:05Z</time>
      </trkpt>
      <trkpt lat="61.2332688" lon="14.504929">
        <ele>444.747</ele>
        <time>2014-12-20T12:19:13Z</time>
      </trkpt>
      <trkpt lat="61.2337152" lon="14.5052034">
        <ele>443.786</ele>
        <time>2014-12-20T12:19:21Z</time>
      </trkpt>
      <trkpt lat="61.2339598" lon="14.5053312">
        <ele>444.266</ele>
        <time>2014-12-20T12:19:26Z</time>
      </trkpt>
      <trkpt lat="61.2340068" lon="14.5053583">
        <ele>444.266</ele>
        <time>2014-12-20T12:19:27Z</time>
      </trkpt>
      <trkpt lat="61.2341354" lon="14.505476">
        <ele>445.228</ele>
        <time>2014-12-20T12:19:30Z</time>
      </trkpt>
      <trkpt lat="61.234211" lon="14.5055818">
        <ele>445.708</ele>
        <time>2014-12-20T12:19:32Z</time>
      </trkpt>
      <trkpt lat="61.2343275" lon="14.5056043">
        <ele>445.228</ele>
        <time>2014-12-20T12:19:36Z</time>
      </trkpt>
      <trkpt lat="61.2343017" lon="14.5054821">
        <ele>445.708</ele>
        <time>2014-12-20T12:19:39Z</time>
      </trkpt>
      <trkpt lat="61.2342782" lon="14.5054698">
        <ele>445.708</ele>
        <time>2014-12-20T12:19:40Z</time>
      </trkpt>
      <trkpt lat="61.2341618" lon="14.5054476">
        <ele>447.631</ele>
        <time>2014-12-20T12:19:45Z</time>
      </trkpt>
      <trkpt lat="61.2341205" lon="14.5054469">
        <ele>449.554</ele>
        <time>2014-12-20T12:19:52Z</time>
      </trkpt>
      <trkpt lat="61.2340924" lon="14.5054288">
        <ele>450.996</ele>
        <time>2014-12-20T12:19:57Z</time>
      </trkpt>
      <trkpt lat="61.2340256" lon="14.5053724">
        <ele>450.996</ele>
        <time>2014-12-20T12:20:03Z</time>
      </trkpt>
      <trkpt lat="61.2340037" lon="14.5053577">
        <ele>450.515</ele>
        <time>2014-12-20T12:20:05Z</time>
      </trkpt>
      <trkpt lat="61.2339229" lon="14.5053114">
        <ele>450.515</ele>
        <time>2014-12-20T12:20:11Z</time>
      </trkpt>
      <trkpt lat="61.233842" lon="14.5052672">
        <ele>450.515</ele>
        <time>2014-12-20T12:20:15Z</time>
      </trkpt>
      <trkpt lat="61.2337522" lon="14.5052249">
        <ele>450.515</ele>
        <time>2014-12-20T12:20:18Z</time>
      </trkpt>
      <trkpt lat="61.2335578" lon="14.505046">
        <ele>450.034</ele>
        <time>2014-12-20T12:20:23Z</time>
      </trkpt>
      <trkpt lat="61.2333574" lon="14.5049563">
        <ele>448.112</ele>
        <time>2014-12-20T12:20:28Z</time>
      </trkpt>
      <trkpt lat="61.2333196" lon="14.5049331">
        <ele>447.631</ele>
        <time>2014-12-20T12:20:29Z</time>
      </trkpt>
      <trkpt lat="61.2331646" lon="14.5048762">
        <ele>447.15</ele>
        <time>2014-12-20T12:20:33Z</time>
      </trkpt>
      <trkpt lat="61.2330056" lon="14.5048062">
        <ele>446.67</ele>
        <time>2014-12-20T12:20:37Z</time>
      </trkpt>
      <trkpt lat="61.2328377" lon="14.5046744">
        <ele>445.708</ele>
        <time>2014-12-20T12:20:42Z</time>
      </trkpt>
      <trkpt lat="61.2326558" lon="14.5046346">
        <ele>445.708</ele>
        <time>2014-12-20T12:20:47Z</time>
      </trkpt>
      <trkpt lat="61.2325854" lon="14.5045491">
        <ele>445.708</ele>
        <time>2014-12-20T12:20:50Z</time>
      </trkpt>
      <trkpt lat="61.2324589" lon="14.5044603">
        <ele>447.15</ele>
        <time>2014-12-20T12:20:54Z</time>
      </trkpt>
      <trkpt lat="61.2323668" lon="14.5043478">
        <ele>447.631</ele>
        <time>2014-12-20T12:20:57Z</time>
      </trkpt>
      <trkpt lat="61.232223" lon="14.504275">
        <ele>448.592</ele>
        <time>2014-12-20T12:21:01Z</time>
      </trkpt>
      <trkpt lat="61.2320821" lon="14.5042292">
        <ele>449.073</ele>
        <time>2014-12-20T12:21:05Z</time>
      </trkpt>
      <trkpt lat="61.2319323" lon="14.5041877">
        <ele>451.476</ele>
        <time>2014-12-20T12:21:10Z</time>
      </trkpt>
      <trkpt lat="61.2317695" lon="14.5041545">
        <ele>453.399</ele>
        <time>2014-12-20T12:21:15Z</time>
      </trkpt>
      <trkpt lat="61.2316667" lon="14.504117">
        <ele>453.88</ele>
        <time>2014-12-20T12:21:18Z</time>
      </trkpt>
      <trkpt lat="61.2315288" lon="14.5040971">
        <ele>455.322</ele>
        <time>2014-12-20T12:21:22Z</time>
      </trkpt>
      <trkpt lat="61.2314291" lon="14.5041001">
        <ele>456.283</ele>
        <time>2014-12-20T12:21:25Z</time>
      </trkpt>
      <trkpt lat="61.2313194" lon="14.5041096">
        <ele>456.764</ele>
        <time>2014-12-20T12:21:29Z</time>
      </trkpt>
      <trkpt lat="61.2312103" lon="14.5041338">
        <ele>458.206</ele>
        <time>2014-12-20T12:21:33Z</time>
      </trkpt>
      <trkpt lat="61.2311186" lon="14.5041576">
        <ele>459.167</ele>
        <time>2014-12-20T12:21:37Z</time>
      </trkpt>
      <trkpt lat="61.231103" lon="14.5041639">
        <ele>459.167</ele>
        <time>2014-12-20T12:21:38Z</time>
      </trkpt>
      <trkpt lat="61.2311263" lon="14.5042017">
        <ele>459.167</ele>
        <time>2014-12-20T12:21:43Z</time>
      </trkpt>
      <trkpt lat="61.2311927" lon="14.5041696">
        <ele>458.686</ele>
        <time>2014-12-20T12:21:46Z</time>
      </trkpt>
      <trkpt lat="61.231368" lon="14.5041291">
        <ele>457.244</ele>
        <time>2014-12-20T12:21:51Z</time>
      </trkpt>
      <trkpt lat="61.2315117" lon="14.5040468">
        <ele>456.283</ele>
        <time>2014-12-20T12:21:55Z</time>
      </trkpt>
      <trkpt lat="61.2316976" lon="14.5040518">
        <ele>454.36</ele>
        <time>2014-12-20T12:21:58Z</time>
      </trkpt>
      <trkpt lat="61.2317557" lon="14.5040592">
        <ele>453.399</ele>
        <time>2014-12-20T12:21:59Z</time>
      </trkpt>
      <trkpt lat="61.2320652" lon="14.5041846">
        <ele>450.034</ele>
        <time>2014-12-20T12:22:04Z</time>
      </trkpt>
      <trkpt lat="61.2323955" lon="14.5043677">
        <ele>449.073</ele>
        <time>2014-12-20T12:22:10Z</time>
      </trkpt>
      <trkpt lat="61.2327423" lon="14.5045872">
        <ele>448.112</ele>
        <time>2014-12-20T12:22:16Z</time>
      </trkpt>
      <trkpt lat="61.2328534" lon="14.504639">
        <ele>448.112</ele>
        <time>2014-12-20T12:22:18Z</time>
      </trkpt>
      <trkpt lat="61.2333735" lon="14.5049998">
        <ele>447.15</ele>
        <time>2014-12-20T12:22:27Z</time>
      </trkpt>
      <trkpt lat="61.2334293" lon="14.5050339">
        <ele>446.67</ele>
        <time>2014-12-20T12:22:28Z</time>
      </trkpt>
      <trkpt lat="61.2336309" lon="14.5051164">
        <ele>445.708</ele>
        <time>2014-12-20T12:22:32Z</time>
      </trkpt>
      <trkpt lat="61.2339629" lon="14.5052645">
        <ele>445.708</ele>
        <time>2014-12-20T12:22:39Z</time>
      </trkpt>
      <trkpt lat="61.2340047" lon="14.5052938">
        <ele>445.708</ele>
        <time>2014-12-20T12:22:40Z</time>
      </trkpt>
      <trkpt lat="61.234198" lon="14.5055445">
        <ele>445.708</ele>
        <time>2014-12-20T12:22:45Z</time>
      </trkpt>
      <trkpt lat="61.234296" lon="14.5055754">
        <ele>445.708</ele>
        <time>2014-12-20T12:22:49Z</time>
      </trkpt>
      <trkpt lat="61.2342837" lon="14.505447">
        <ele>446.189</ele>
        <time>2014-12-20T12:22:52Z</time>
      </trkpt>
      <trkpt lat="61.2342608" lon="14.5054237">
        <ele>446.189</ele>
        <time>2014-12-20T12:22:53Z</time>
      </trkpt>
      <trkpt lat="61.2340935" lon="14.5053496">
        <ele>445.708</ele>
        <time>2014-12-20T12:22:59Z</time>
      </trkpt>
      <trkpt lat="61.2339756" lon="14.505273">
        <ele>445.228</ele>
        <time>2014-12-20T12:23:03Z</time>
      </trkpt>
      <trkpt lat="61.2338379" lon="14.505204">
        <ele>445.228</ele>
        <time>2014-12-20T12:23:07Z</time>
      </trkpt>
      <trkpt lat="61.2336785" lon="14.5051238">
        <ele>444.747</ele>
        <time>2014-12-20T12:23:11Z</time>
      </trkpt>
      <trkpt lat="61.2334687" lon="14.5050383">
        <ele>444.747</ele>
        <time>2014-12-20T12:23:16Z</time>
      </trkpt>
      <trkpt lat="61.233344" lon="14.5050034">
        <ele>445.228</ele>
        <time>2014-12-20T12:23:19Z</time>
      </trkpt>
      <trkpt lat="61.2331569" lon="14.5048974">
        <ele>446.67</ele>
        <time>2014-12-20T12:23:24Z</time>
      </trkpt>
      <trkpt lat="61.2329757" lon="14.5048197">
        <ele>447.631</ele>
        <time>2014-12-20T12:23:29Z</time>
      </trkpt>
      <trkpt lat="61.2328559" lon="14.5047268">
        <ele>447.631</ele>
        <time>2014-12-20T12:23:33Z</time>
      </trkpt>
      <trkpt lat="61.2327559" lon="14.5046616">
        <ele>448.592</ele>
        <time>2014-12-20T12:23:36Z</time>
      </trkpt>
      <trkpt lat="61.2327217" lon="14.5046435">
        <ele>448.592</ele>
        <time>2014-12-20T12:23:37Z</time>
      </trkpt>
      <trkpt lat="61.2325953" lon="14.5045599">
        <ele>448.112</ele>
        <time>2014-12-20T12:23:41Z</time>
      </trkpt>
      <trkpt lat="61.2324841" lon="14.5044611">
        <ele>447.631</ele>
        <time>2014-12-20T12:23:45Z</time>
      </trkpt>
      <trkpt lat="61.232413" lon="14.5043964">
        <ele>446.67</ele>
        <time>2014-12-20T12:23:48Z</time>
      </trkpt>
      <trkpt lat="61.2322965" lon="14.5043365">
        <ele>445.708</ele>
        <time>2014-12-20T12:23:52Z</time>
      </trkpt>
      <trkpt lat="61.2321442" lon="14.5042681">
        <ele>445.228</ele>
        <time>2014-12-20T12:23:57Z</time>
      </trkpt>
      <trkpt lat="61.2319595" lon="14.5042296">
        <ele>446.67</ele>
        <time>2014-12-20T12:24:03Z</time>
      </trkpt>
      <trkpt lat="61.2318961" lon="14.5042427">
        <ele>447.15</ele>
        <time>2014-12-20T12:24:05Z</time>
      </trkpt>
      <trkpt lat="61.2317005" lon="14.5041653">
        <ele>450.034</ele>
        <time>2014-12-20T12:24:11Z</time>
      </trkpt>
      <trkpt lat="61.2315748" lon="14.5041245">
        <ele>451.476</ele>
        <time>2014-12-20T12:24:15Z</time>
      </trkpt>
      <trkpt lat="61.2314848" lon="14.5041042">
        <ele>452.438</ele>
        <time>2014-12-20T12:24:18Z</time>
      </trkpt>
      <trkpt lat="61.2313849" lon="14.5041005">
        <ele>453.399</ele>
        <time>2014-12-20T12:24:21Z</time>
      </trkpt>
      <trkpt lat="61.2312646" lon="14.5041214">
        <ele>454.36</ele>
        <time>2014-12-20T12:24:25Z</time>
      </trkpt>
      <trkpt lat="61.2311869" lon="14.5041301">
        <ele>454.841</ele>
        <time>2014-12-20T12:24:28Z</time>
      </trkpt>
      <trkpt lat="61.2311087" lon="14.5041628">
        <ele>455.322</ele>
        <time>2014-12-20T12:24:31Z</time>
      </trkpt>
      <trkpt lat="61.2310767" lon="14.5041965">
        <ele>455.802</ele>
        <time>2014-12-20T12:24:32Z</time>
      </trkpt>
      <trkpt lat="61.2309253" lon="14.5042496">
        <ele>455.322</ele>
        <time>2014-12-20T12:24:37Z</time>
      </trkpt>
      <trkpt lat="61.2307505" lon="14.5043374">
        <ele>455.322</ele>
        <time>2014-12-20T12:24:43Z</time>
      </trkpt>
      <trkpt lat="61.23063" lon="14.5043773">
        <ele>455.322</ele>
        <time>2014-12-20T12:24:47Z</time>
      </trkpt>
      <trkpt lat="61.230483" lon="14.5044532">
        <ele>454.841</ele>
        <time>2014-12-20T12:24:52Z</time>
      </trkpt>
      <trkpt lat="61.2304003" lon="14.5044779">
        <ele>454.36</ele>
        <time>2014-12-20T12:24:55Z</time>
      </trkpt>
      <trkpt lat="61.2302571" lon="14.5045511">
        <ele>455.322</ele>
        <time>2014-12-20T12:25:00Z</time>
      </trkpt>
      <trkpt lat="61.2301729" lon="14.5046117">
        <ele>456.764</ele>
        <time>2014-12-20T12:25:04Z</time>
      </trkpt>
      <trkpt lat="61.2301053" lon="14.5046607">
        <ele>457.244</ele>
        <time>2014-12-20T12:25:07Z</time>
      </trkpt>
      <trkpt lat="61.230039" lon="14.504696">
        <ele>458.206</ele>
        <time>2014-12-20T12:25:12Z</time>
      </trkpt>
      <trkpt lat="61.2299722" lon="14.5047304">
        <ele>458.206</ele>
        <time>2014-12-20T12:25:17Z</time>
      </trkpt>
      <trkpt lat="61.2298722" lon="14.5047703">
        <ele>458.686</ele>
        <time>2014-12-20T12:25:23Z</time>
      </trkpt>
      <trkpt lat="61.2297331" lon="14.5048311">
        <ele>459.648</ele>
        <time>2014-12-20T12:25:28Z</time>
      </trkpt>
      <trkpt lat="61.2296251" lon="14.504887">
        <ele>459.648</ele>
        <time>2014-12-20T12:25:33Z</time>
      </trkpt>
      <trkpt lat="61.2294939" lon="14.5049518">
        <ele>460.128</ele>
        <time>2014-12-20T12:25:39Z</time>
      </trkpt>
      <trkpt lat="61.22939" lon="14.5050063">
        <ele>460.128</ele>
        <time>2014-12-20T12:25:44Z</time>
      </trkpt>
      <trkpt lat="61.2292447" lon="14.5050703">
        <ele>459.648</ele>
        <time>2014-12-20T12:25:50Z</time>
      </trkpt>
      <trkpt lat="61.2290858" lon="14.5051672">
        <ele>459.167</ele>
        <time>2014-12-20T12:25:56Z</time>
      </trkpt>
      <trkpt lat="61.2289886" lon="14.5052211">
        <ele>459.167</ele>
        <time>2014-12-20T12:26:00Z</time>
      </trkpt>
      <trkpt lat="61.2288709" lon="14.5052791">
        <ele>459.167</ele>
        <time>2014-12-20T12:26:05Z</time>
      </trkpt>
      <trkpt lat="61.2288083" lon="14.5053145">
        <ele>459.167</ele>
        <time>2014-12-20T12:26:10Z</time>
      </trkpt>
      <trkpt lat="61.2287124" lon="14.5053572">
        <ele>459.167</ele>
        <time>2014-12-20T12:26:15Z</time>
      </trkpt>
      <trkpt lat="61.2285885" lon="14.5054183">
        <ele>459.648</ele>
        <time>2014-12-20T12:26:20Z</time>
      </trkpt>
      <trkpt lat="61.2285112" lon="14.5054691">
        <ele>460.128</ele>
        <time>2014-12-20T12:26:25Z</time>
      </trkpt>
      <trkpt lat="61.2284361" lon="14.5055067">
        <ele>460.609</ele>
        <time>2014-12-20T12:26:31Z</time>
      </trkpt>
      <trkpt lat="61.2283456" lon="14.5055509">
        <ele>460.609</ele>
        <time>2014-12-20T12:26:36Z</time>
      </trkpt>
      <trkpt lat="61.2282486" lon="14.5056007">
        <ele>461.57</ele>
        <time>2014-12-20T12:26:41Z</time>
      </trkpt>
      <trkpt lat="61.2281575" lon="14.505648">
        <ele>461.57</ele>
        <time>2014-12-20T12:26:45Z</time>
      </trkpt>
      <trkpt lat="61.2280545" lon="14.505699">
        <ele>461.57</ele>
        <time>2014-12-20T12:26:50Z</time>
      </trkpt>
      <trkpt lat="61.2279665" lon="14.5057453">
        <ele>462.051</ele>
        <time>2014-12-20T12:26:54Z</time>
      </trkpt>
      <trkpt lat="61.2278477" lon="14.505807">
        <ele>462.531</ele>
        <time>2014-12-20T12:26:59Z</time>
      </trkpt>
      <trkpt lat="61.2277851" lon="14.5058485">
        <ele>462.051</ele>
        <time>2014-12-20T12:27:03Z</time>
      </trkpt>
      <trkpt lat="61.2277176" lon="14.5058598">
        <ele>461.089</ele>
        <time>2014-12-20T12:27:07Z</time>
      </trkpt>
      <trkpt lat="61.227612" lon="14.5059195">
        <ele>460.609</ele>
        <time>2014-12-20T12:27:12Z</time>
      </trkpt>
      <trkpt lat="61.2275183" lon="14.5059721">
        <ele>461.089</ele>
        <time>2014-12-20T12:27:16Z</time>
      </trkpt>
      <trkpt lat="61.2274335" lon="14.5060312">
        <ele>460.609</ele>
        <time>2014-12-20T12:27:20Z</time>
      </trkpt>
      <trkpt lat="61.2273149" lon="14.5061142">
        <ele>460.128</ele>
        <time>2014-12-20T12:27:25Z</time>
      </trkpt>
      <trkpt lat="61.2271933" lon="14.5062581">
        <ele>459.648</ele>
        <time>2014-12-20T12:27:31Z</time>
      </trkpt>
      <trkpt lat="61.2270822" lon="14.5063938">
        <ele>459.648</ele>
        <time>2014-12-20T12:27:36Z</time>
      </trkpt>
      <trkpt lat="61.2269821" lon="14.5065746">
        <ele>459.167</ele>
        <time>2014-12-20T12:27:41Z</time>
      </trkpt>
      <trkpt lat="61.2268894" lon="14.506783">
        <ele>459.167</ele>
        <time>2014-12-20T12:27:46Z</time>
      </trkpt>
      <trkpt lat="61.2268097" lon="14.5069963">
        <ele>458.686</ele>
        <time>2014-12-20T12:27:51Z</time>
      </trkpt>
      <trkpt lat="61.2267316" lon="14.5071901">
        <ele>459.167</ele>
        <time>2014-12-20T12:27:56Z</time>
      </trkpt>
      <trkpt lat="61.226717" lon="14.507223">
        <ele>459.167</ele>
        <time>2014-12-20T12:27:57Z</time>
      </trkpt>
      <trkpt lat="61.2266635" lon="14.5073599">
        <ele>460.128</ele>
        <time>2014-12-20T12:28:01Z</time>
      </trkpt>
      <trkpt lat="61.2266069" lon="14.5074992">
        <ele>459.167</ele>
        <time>2014-12-20T12:28:05Z</time>
      </trkpt>
      <trkpt lat="61.2265372" lon="14.5076801">
        <ele>458.206</ele>
        <time>2014-12-20T12:28:10Z</time>
      </trkpt>
      <trkpt lat="61.2264749" lon="14.5078744">
        <ele>457.725</ele>
        <time>2014-12-20T12:28:15Z</time>
      </trkpt>
      <trkpt lat="61.2263854" lon="14.508123">
        <ele>456.764</ele>
        <time>2014-12-20T12:28:20Z</time>
      </trkpt>
      <trkpt lat="61.2263149" lon="14.5083676">
        <ele>457.244</ele>
        <time>2014-12-20T12:28:24Z</time>
      </trkpt>
      <trkpt lat="61.226186" lon="14.5087742">
        <ele>457.244</ele>
        <time>2014-12-20T12:28:30Z</time>
      </trkpt>
      <trkpt lat="61.226085" lon="14.5090828">
        <ele>456.764</ele>
        <time>2014-12-20T12:28:35Z</time>
      </trkpt>
      <trkpt lat="61.225985" lon="14.5094099">
        <ele>457.244</ele>
        <time>2014-12-20T12:28:40Z</time>
      </trkpt>
      <trkpt lat="61.2258787" lon="14.5097579">
        <ele>457.725</ele>
        <time>2014-12-20T12:28:45Z</time>
      </trkpt>
      <trkpt lat="61.2257935" lon="14.5099781">
        <ele>458.686</ele>
        <time>2014-12-20T12:28:49Z</time>
      </trkpt>
      <trkpt lat="61.2256882" lon="14.5102541">
        <ele>458.686</ele>
        <time>2014-12-20T12:28:54Z</time>
      </trkpt>
      <trkpt lat="61.2255958" lon="14.5105404">
        <ele>460.609</ele>
        <time>2014-12-20T12:28:59Z</time>
      </trkpt>
      <trkpt lat="61.2255047" lon="14.5107852">
        <ele>463.012</ele>
        <time>2014-12-20T12:29:03Z</time>
      </trkpt>
      <trkpt lat="61.2254109" lon="14.5110271">
        <ele>464.454</ele>
        <time>2014-12-20T12:29:07Z</time>
      </trkpt>
      <trkpt lat="61.2253184" lon="14.5112378">
        <ele>463.973</ele>
        <time>2014-12-20T12:29:11Z</time>
      </trkpt>
      <trkpt lat="61.2251748" lon="14.5115092">
        <ele>464.454</ele>
        <time>2014-12-20T12:29:17Z</time>
      </trkpt>
      <trkpt lat="61.2250504" lon="14.5117307">
        <ele>464.935</ele>
        <time>2014-12-20T12:29:22Z</time>
      </trkpt>
      <trkpt lat="61.2249459" lon="14.5118936">
        <ele>465.416</ele>
        <time>2014-12-20T12:29:27Z</time>
      </trkpt>
      <trkpt lat="61.2249232" lon="14.5119253">
        <ele>465.416</ele>
        <time>2014-12-20T12:29:29Z</time>
      </trkpt>
      <trkpt lat="61.224916" lon="14.5119432">
        <ele>464.935</ele>
        <time>2014-12-20T12:29:34Z</time>
      </trkpt>
      <trkpt lat="61.2249175" lon="14.5119448">
        <ele>464.935</ele>
        <time>2014-12-20T12:29:35Z</time>
      </trkpt>
      <trkpt lat="61.2249282" lon="14.5119221">
        <ele>464.454</ele>
        <time>2014-12-20T12:29:36Z</time>
      </trkpt>
      <trkpt lat="61.225042" lon="14.5117437">
        <ele>463.012</ele>
        <time>2014-12-20T12:29:42Z</time>
      </trkpt>
      <trkpt lat="61.2251078" lon="14.5116393">
        <ele>462.531</ele>
        <time>2014-12-20T12:29:45Z</time>
      </trkpt>
      <trkpt lat="61.2251587" lon="14.5115325">
        <ele>462.051</ele>
        <time>2014-12-20T12:29:49Z</time>
      </trkpt>
      <trkpt lat="61.2251143" lon="14.5115552">
        <ele>462.051</ele>
        <time>2014-12-20T12:29:53Z</time>
      </trkpt>
      <trkpt lat="61.2250255" lon="14.511701">
        <ele>462.531</ele>
        <time>2014-12-20T12:29:59Z</time>
      </trkpt>
      <trkpt lat="61.224932" lon="14.5118572">
        <ele>462.531</ele>
        <time>2014-12-20T12:30:04Z</time>
      </trkpt>
      <trkpt lat="61.2248242" lon="14.5119996">
        <ele>463.493</ele>
        <time>2014-12-20T12:30:10Z</time>
      </trkpt>
      <trkpt lat="61.2247592" lon="14.5120816">
        <ele>463.493</ele>
        <time>2014-12-20T12:30:14Z</time>
      </trkpt>
      <trkpt lat="61.2246614" lon="14.5122013">
        <ele>463.973</ele>
        <time>2014-12-20T12:30:18Z</time>
      </trkpt>
      <trkpt lat="61.224545" lon="14.5123539">
        <ele>464.454</ele>
        <time>2014-12-20T12:30:23Z</time>
      </trkpt>
      <trkpt lat="61.2244518" lon="14.5124736">
        <ele>464.454</ele>
        <time>2014-12-20T12:30:27Z</time>
      </trkpt>
      <trkpt lat="61.2243423" lon="14.5126105">
        <ele>463.973</ele>
        <time>2014-12-20T12:30:32Z</time>
      </trkpt>
      <trkpt lat="61.2242264" lon="14.512752">
        <ele>464.454</ele>
        <time>2014-12-20T12:30:38Z</time>
      </trkpt>
      <trkpt lat="61.2241264" lon="14.5128869">
        <ele>465.896</ele>
        <time>2014-12-20T12:30:43Z</time>
      </trkpt>
      <trkpt lat="61.2240487" lon="14.5130123">
        <ele>464.935</ele>
        <time>2014-12-20T12:30:49Z</time>
      </trkpt>
      <trkpt lat="61.2239841" lon="14.5130905">
        <ele>465.416</ele>
        <time>2014-12-20T12:30:55Z</time>
      </trkpt>
      <trkpt lat="61.2239279" lon="14.5131636">
        <ele>465.416</ele>
        <time>2014-12-20T12:30:59Z</time>
      </trkpt>
      <trkpt lat="61.22386" lon="14.513243">
        <ele>465.416</ele>
        <time>2014-12-20T12:31:03Z</time>
      </trkpt>
      <trkpt lat="61.2237773" lon="14.5133461">
        <ele>464.935</ele>
        <time>2014-12-20T12:31:07Z</time>
      </trkpt>
      <trkpt lat="61.2236462" lon="14.5135072">
        <ele>464.935</ele>
        <time>2014-12-20T12:31:13Z</time>
      </trkpt>
      <trkpt lat="61.2234741" lon="14.5137278">
        <ele>464.935</ele>
        <time>2014-12-20T12:31:19Z</time>
      </trkpt>
      <trkpt lat="61.2233193" lon="14.5139497">
        <ele>464.935</ele>
        <time>2014-12-20T12:31:25Z</time>
      </trkpt>
      <trkpt lat="61.2232223" lon="14.5140839">
        <ele>464.454</ele>
        <time>2014-12-20T12:31:29Z</time>
      </trkpt>
      <trkpt lat="61.2231219" lon="14.514209">
        <ele>464.454</ele>
        <time>2014-12-20T12:31:34Z</time>
      </trkpt>
      <trkpt lat="61.2230525" lon="14.5143118">
        <ele>464.935</ele>
        <time>2014-12-20T12:31:38Z</time>
      </trkpt>
      <trkpt lat="61.2229681" lon="14.5144213">
        <ele>465.416</ele>
        <time>2014-12-20T12:31:42Z</time>
      </trkpt>
      <trkpt lat="61.2228738" lon="14.514538">
        <ele>465.896</ele>
        <time>2014-12-20T12:31:47Z</time>
      </trkpt>
      <trkpt lat="61.2227975" lon="14.5146322">
        <ele>465.896</ele>
        <time>2014-12-20T12:31:51Z</time>
      </trkpt>
      <trkpt lat="61.222683" lon="14.5147653">
        <ele>465.416</ele>
        <time>2014-12-20T12:31:57Z</time>
      </trkpt>
      <trkpt lat="61.2225719" lon="14.5148779">
        <ele>464.454</ele>
        <time>2014-12-20T12:32:03Z</time>
      </trkpt>
      <trkpt lat="61.2224672" lon="14.5149878">
        <ele>464.454</ele>
        <time>2014-12-20T12:32:07Z</time>
      </trkpt>
      <trkpt lat="61.2222805" lon="14.5151312">
        <ele>465.416</ele>
        <time>2014-12-20T12:32:14Z</time>
      </trkpt>
      <trkpt lat="61.2221524" lon="14.5151881">
        <ele>465.416</ele>
        <time>2014-12-20T12:32:19Z</time>
      </trkpt>
      <trkpt lat="61.2220203" lon="14.5152248">
        <ele>465.416</ele>
        <time>2014-12-20T12:32:24Z</time>
      </trkpt>
      <trkpt lat="61.2219229" lon="14.5152195">
        <ele>464.454</ele>
        <time>2014-12-20T12:32:28Z</time>
      </trkpt>
      <trkpt lat="61.221835" lon="14.5152337">
        <ele>463.973</ele>
        <time>2014-12-20T12:32:32Z</time>
      </trkpt>
      <trkpt lat="61.2217281" lon="14.5152751">
        <ele>463.493</ele>
        <time>2014-12-20T12:32:36Z</time>
      </trkpt>
      <trkpt lat="61.221588" lon="14.515314">
        <ele>463.493</ele>
        <time>2014-12-20T12:32:40Z</time>
      </trkpt>
      <trkpt lat="61.221383" lon="14.5153853">
        <ele>463.012</ele>
        <time>2014-12-20T12:32:45Z</time>
      </trkpt>
      <trkpt lat="61.2212226" lon="14.5154259">
        <ele>462.531</ele>
        <time>2014-12-20T12:32:49Z</time>
      </trkpt>
      <trkpt lat="61.2210643" lon="14.5154622">
        <ele>463.012</ele>
        <time>2014-12-20T12:32:53Z</time>
      </trkpt>
      <trkpt lat="61.2209474" lon="14.5154812">
        <ele>463.012</ele>
        <time>2014-12-20T12:32:56Z</time>
      </trkpt>
      <trkpt lat="61.2207679" lon="14.5155993">
        <ele>464.454</ele>
        <time>2014-12-20T12:33:02Z</time>
      </trkpt>
      <trkpt lat="61.2207385" lon="14.5156197">
        <ele>464.935</ele>
        <time>2014-12-20T12:33:03Z</time>
      </trkpt>
      <trkpt lat="61.2205833" lon="14.5157438">
        <ele>465.896</ele>
        <time>2014-12-20T12:33:09Z</time>
      </trkpt>
      <trkpt lat="61.2204822" lon="14.5158734">
        <ele>466.377</ele>
        <time>2014-12-20T12:33:13Z</time>
      </trkpt>
      <trkpt lat="61.2203952" lon="14.5160297">
        <ele>466.377</ele>
        <time>2014-12-20T12:33:17Z</time>
      </trkpt>
      <trkpt lat="61.2203206" lon="14.5162235">
        <ele>467.338</ele>
        <time>2014-12-20T12:33:21Z</time>
      </trkpt>
      <trkpt lat="61.2202191" lon="14.5164659">
        <ele>467.819</ele>
        <time>2014-12-20T12:33:26Z</time>
      </trkpt>
      <trkpt lat="61.2201408" lon="14.5166645">
        <ele>467.338</ele>
        <time>2014-12-20T12:33:31Z</time>
      </trkpt>
      <trkpt lat="61.2201231" lon="14.5167084">
        <ele>467.819</ele>
        <time>2014-12-20T12:33:32Z</time>
      </trkpt>
      <trkpt lat="61.2200559" lon="14.5168935">
        <ele>467.338</ele>
        <time>2014-12-20T12:33:37Z</time>
      </trkpt>
      <trkpt lat="61.2200379" lon="14.5169411">
        <ele>467.338</ele>
        <time>2014-12-20T12:33:39Z</time>
      </trkpt>
      <trkpt lat="61.2201461" lon="14.5166724">
        <ele>468.299</ele>
        <time>2014-12-20T12:34:19Z</time>
      </trkpt>
      <trkpt lat="61.2201282" lon="14.5167193">
        <ele>468.299</ele>
        <time>2014-12-20T12:34:20Z</time>
      </trkpt>
      <trkpt lat="61.2200491" lon="14.5169586">
        <ele>467.819</ele>
        <time>2014-12-20T12:34:24Z</time>
      </trkpt>
      <trkpt lat="61.219963" lon="14.5172042">
        <ele>467.819</ele>
        <time>2014-12-20T12:34:30Z</time>
      </trkpt>
      <trkpt lat="61.2198886" lon="14.5174022">
        <ele>467.819</ele>
        <time>2014-12-20T12:34:35Z</time>
      </trkpt>
      <trkpt lat="61.2198174" lon="14.517611">
        <ele>468.299</ele>
        <time>2014-12-20T12:34:41Z</time>
      </trkpt>
      <trkpt lat="61.2197575" lon="14.5177834">
        <ele>469.261</ele>
        <time>2014-12-20T12:34:46Z</time>
      </trkpt>
      <trkpt lat="61.2196597" lon="14.518078">
        <ele>470.222</ele>
        <time>2014-12-20T12:34:54Z</time>
      </trkpt>
      <trkpt lat="61.2196129" lon="14.5182216">
        <ele>469.741</ele>
        <time>2014-12-20T12:34:58Z</time>
      </trkpt>
      <trkpt lat="61.2195318" lon="14.5184729">
        <ele>469.261</ele>
        <time>2014-12-20T12:35:04Z</time>
      </trkpt>
      <trkpt lat="61.2194778" lon="14.5186307">
        <ele>469.261</ele>
        <time>2014-12-20T12:35:08Z</time>
      </trkpt>
      <trkpt lat="61.2194166" lon="14.5188676">
        <ele>468.78</ele>
        <time>2014-12-20T12:35:14Z</time>
      </trkpt>
      <trkpt lat="61.2193388" lon="14.5190965">
        <ele>469.261</ele>
        <time>2014-12-20T12:35:19Z</time>
      </trkpt>
      <trkpt lat="61.2192429" lon="14.5193684">
        <ele>468.299</ele>
        <time>2014-12-20T12:35:25Z</time>
      </trkpt>
      <trkpt lat="61.2191167" lon="14.5196848">
        <ele>467.338</ele>
        <time>2014-12-20T12:35:32Z</time>
      </trkpt>
      <trkpt lat="61.2189592" lon="14.5200374">
        <ele>465.416</ele>
        <time>2014-12-20T12:35:38Z</time>
      </trkpt>
      <trkpt lat="61.2186262" lon="14.5206766">
        <ele>463.973</ele>
        <time>2014-12-20T12:35:48Z</time>
      </trkpt>
      <trkpt lat="61.2184863" lon="14.5209561">
        <ele>463.973</ele>
        <time>2014-12-20T12:35:53Z</time>
      </trkpt>
      <trkpt lat="61.218454" lon="14.5210135">
        <ele>463.973</ele>
        <time>2014-12-20T12:35:54Z</time>
      </trkpt>
      <trkpt lat="61.2182673" lon="14.5213533">
        <ele>463.973</ele>
        <time>2014-12-20T12:36:01Z</time>
      </trkpt>
      <trkpt lat="61.2181634" lon="14.5215522">
        <ele>464.454</ele>
        <time>2014-12-20T12:36:06Z</time>
      </trkpt>
      <trkpt lat="61.2180816" lon="14.5217646">
        <ele>464.454</ele>
        <time>2014-12-20T12:36:10Z</time>
      </trkpt>
      <trkpt lat="61.2180005" lon="14.521934">
        <ele>463.973</ele>
        <time>2014-12-20T12:36:14Z</time>
      </trkpt>
      <trkpt lat="61.2178954" lon="14.5221246">
        <ele>463.012</ele>
        <time>2014-12-20T12:36:19Z</time>
      </trkpt>
      <trkpt lat="61.2177673" lon="14.5223354">
        <ele>463.493</ele>
        <time>2014-12-20T12:36:24Z</time>
      </trkpt>
      <trkpt lat="61.2176501" lon="14.5225237">
        <ele>464.935</ele>
        <time>2014-12-20T12:36:29Z</time>
      </trkpt>
      <trkpt lat="61.2174434" lon="14.5224051">
        <ele>469.261</ele>
        <time>2014-12-20T12:38:06Z</time>
      </trkpt>
      <trkpt lat="61.2173838" lon="14.522245">
        <ele>468.78</ele>
        <time>2014-12-20T12:38:11Z</time>
      </trkpt>
      <trkpt lat="61.2172789" lon="14.522019">
        <ele>467.338</ele>
        <time>2014-12-20T12:38:18Z</time>
      </trkpt>
      <trkpt lat="61.2171721" lon="14.5218027">
        <ele>467.338</ele>
        <time>2014-12-20T12:38:24Z</time>
      </trkpt>
      <trkpt lat="61.2171001" lon="14.5216716">
        <ele>466.857</ele>
        <time>2014-12-20T12:38:29Z</time>
      </trkpt>
      <trkpt lat="61.2170353" lon="14.5215234">
        <ele>466.857</ele>
        <time>2014-12-20T12:38:33Z</time>
      </trkpt>
      <trkpt lat="61.2169638" lon="14.521339">
        <ele>465.896</ele>
        <time>2014-12-20T12:38:37Z</time>
      </trkpt>
      <trkpt lat="61.2167746" lon="14.5208365">
        <ele>464.935</ele>
        <time>2014-12-20T12:38:46Z</time>
      </trkpt>
      <trkpt lat="61.216692" lon="14.5206286">
        <ele>464.454</ele>
        <time>2014-12-20T12:38:49Z</time>
      </trkpt>
      <trkpt lat="61.2165715" lon="14.5203112">
        <ele>464.935</ele>
        <time>2014-12-20T12:38:53Z</time>
      </trkpt>
      <trkpt lat="61.2165242" lon="14.5201693">
        <ele>464.935</ele>
        <time>2014-12-20T12:38:55Z</time>
      </trkpt>
      <trkpt lat="61.2164443" lon="14.5199861">
        <ele>464.935</ele>
        <time>2014-12-20T12:38:58Z</time>
      </trkpt>
      <trkpt lat="61.2163489" lon="14.5197848">
        <ele>463.973</ele>
        <time>2014-12-20T12:39:02Z</time>
      </trkpt>
      <trkpt lat="61.2162319" lon="14.5195052">
        <ele>463.973</ele>
        <time>2014-12-20T12:39:07Z</time>
      </trkpt>
      <trkpt lat="61.2161707" lon="14.5193476">
        <ele>463.973</ele>
        <time>2014-12-20T12:39:10Z</time>
      </trkpt>
      <trkpt lat="61.2160867" lon="14.5191363">
        <ele>463.493</ele>
        <time>2014-12-20T12:39:14Z</time>
      </trkpt>
      <trkpt lat="61.2159771" lon="14.5188929">
        <ele>463.493</ele>
        <time>2014-12-20T12:39:19Z</time>
      </trkpt>
      <trkpt lat="61.2158821" lon="14.5186837">
        <ele>463.493</ele>
        <time>2014-12-20T12:39:23Z</time>
      </trkpt>
      <trkpt lat="61.2158064" lon="14.5185131">
        <ele>463.973</ele>
        <time>2014-12-20T12:39:27Z</time>
      </trkpt>
      <trkpt lat="61.215766" lon="14.518433">
        <ele>463.973</ele>
        <time>2014-12-20T12:39:29Z</time>
      </trkpt>
      <trkpt lat="61.2157506" lon="14.5183515">
        <ele>463.973</ele>
        <time>2014-12-20T12:39:32Z</time>
      </trkpt>
      <trkpt lat="61.2157999" lon="14.5184355">
        <ele>463.012</ele>
        <time>2014-12-20T12:40:04Z</time>
      </trkpt>
      <trkpt lat="61.2158073" lon="14.5184542">
        <ele>462.531</ele>
        <time>2014-12-20T12:40:05Z</time>
      </trkpt>
      <trkpt lat="61.2158753" lon="14.5185893">
        <ele>461.57</ele>
        <time>2014-12-20T12:40:09Z</time>
      </trkpt>
      <trkpt lat="61.2159532" lon="14.5187603">
        <ele>461.089</ele>
        <time>2014-12-20T12:40:14Z</time>
      </trkpt>
      <trkpt lat="61.2159852" lon="14.5188241">
        <ele>460.609</ele>
        <time>2014-12-20T12:40:16Z</time>
      </trkpt>
      <trkpt lat="61.2160755" lon="14.5190348">
        <ele>461.089</ele>
        <time>2014-12-20T12:40:22Z</time>
      </trkpt>
      <trkpt lat="61.2161479" lon="14.5192038">
        <ele>462.051</ele>
        <time>2014-12-20T12:40:27Z</time>
      </trkpt>
      <trkpt lat="61.2161958" lon="14.519336">
        <ele>462.051</ele>
        <time>2014-12-20T12:40:32Z</time>
      </trkpt>
      <trkpt lat="61.2162495" lon="14.5194401">
        <ele>462.051</ele>
        <time>2014-12-20T12:40:35Z</time>
      </trkpt>
      <trkpt lat="61.2163476" lon="14.5196544">
        <ele>461.57</ele>
        <time>2014-12-20T12:40:41Z</time>
      </trkpt>
      <trkpt lat="61.21642" lon="14.5198119">
        <ele>461.089</ele>
        <time>2014-12-20T12:40:45Z</time>
      </trkpt>
      <trkpt lat="61.2165024" lon="14.5199864">
        <ele>461.089</ele>
        <time>2014-12-20T12:40:49Z</time>
      </trkpt>
      <trkpt lat="61.2165672" lon="14.5201674">
        <ele>461.089</ele>
        <time>2014-12-20T12:40:53Z</time>
      </trkpt>
      <trkpt lat="61.2166418" lon="14.5203786">
        <ele>460.128</ele>
        <time>2014-12-20T12:40:58Z</time>
      </trkpt>
      <trkpt lat="61.216711" lon="14.5205651">
        <ele>459.648</ele>
        <time>2014-12-20T12:41:02Z</time>
      </trkpt>
      <trkpt lat="61.2167774" lon="14.5207696">
        <ele>460.128</ele>
        <time>2014-12-20T12:41:07Z</time>
      </trkpt>
      <trkpt lat="61.216853" lon="14.520951">
        <ele>460.609</ele>
        <time>2014-12-20T12:41:12Z</time>
      </trkpt>
      <trkpt lat="61.2169271" lon="14.5211275">
        <ele>461.57</ele>
        <time>2014-12-20T12:41:17Z</time>
      </trkpt>
      <trkpt lat="61.2169875" lon="14.5212835">
        <ele>462.531</ele>
        <time>2014-12-20T12:41:21Z</time>
      </trkpt>
      <trkpt lat="61.2170455" lon="14.5214327">
        <ele>463.493</ele>
        <time>2014-12-20T12:41:25Z</time>
      </trkpt>
      <trkpt lat="61.2171232" lon="14.5216047">
        <ele>464.935</ele>
        <time>2014-12-20T12:41:31Z</time>
      </trkpt>
      <trkpt lat="61.2171812" lon="14.5217344">
        <ele>465.896</ele>
        <time>2014-12-20T12:41:36Z</time>
      </trkpt>
      <trkpt lat="61.2172369" lon="14.5218404">
        <ele>466.377</ele>
        <time>2014-12-20T12:41:40Z</time>
      </trkpt>
      <trkpt lat="61.2173177" lon="14.5220008">
        <ele>465.896</ele>
        <time>2014-12-20T12:41:45Z</time>
      </trkpt>
      <trkpt lat="61.2173628" lon="14.5220988">
        <ele>465.896</ele>
        <time>2014-12-20T12:41:48Z</time>
      </trkpt>
      <trkpt lat="61.217411" lon="14.5221952">
        <ele>466.377</ele>
        <time>2014-12-20T12:41:51Z</time>
      </trkpt>
      <trkpt lat="61.2174452" lon="14.5222927">
        <ele>466.857</ele>
        <time>2014-12-20T12:41:54Z</time>
      </trkpt>
      <trkpt lat="61.2174814" lon="14.5223905">
        <ele>466.857</ele>
        <time>2014-12-20T12:41:57Z</time>
      </trkpt>
      <trkpt lat="61.217672" lon="14.522481">
        <ele>468.78</ele>
        <time>2014-12-20T12:44:35Z</time>
      </trkpt>
      <trkpt lat="61.2178497" lon="14.5221507">
        <ele>467.819</ele>
        <time>2014-12-20T12:44:41Z</time>
      </trkpt>
      <trkpt lat="61.2180057" lon="14.5218426">
        <ele>465.896</ele>
        <time>2014-12-20T12:44:45Z</time>
      </trkpt>
      <trkpt lat="61.2185298" lon="14.5209401">
        <ele>462.531</ele>
        <time>2014-12-20T12:44:54Z</time>
      </trkpt>
      <trkpt lat="61.2186855" lon="14.5206547">
        <ele>463.012</ele>
        <time>2014-12-20T12:44:57Z</time>
      </trkpt>
      <trkpt lat="61.2188839" lon="14.5202294">
        <ele>461.57</ele>
        <time>2014-12-20T12:45:02Z</time>
      </trkpt>
      <trkpt lat="61.2189764" lon="14.520091">
        <ele>461.089</ele>
        <time>2014-12-20T12:45:05Z</time>
      </trkpt>
      <trkpt lat="61.2190186" lon="14.520002">
        <ele>461.57</ele>
        <time>2014-12-20T12:45:07Z</time>
      </trkpt>
      <trkpt lat="61.2191104" lon="14.5198231">
        <ele>461.57</ele>
        <time>2014-12-20T12:45:11Z</time>
      </trkpt>
      <trkpt lat="61.2192317" lon="14.5194841">
        <ele>461.57</ele>
        <time>2014-12-20T12:45:17Z</time>
      </trkpt>
      <trkpt lat="61.2193063" lon="14.5192328">
        <ele>462.051</ele>
        <time>2014-12-20T12:45:21Z</time>
      </trkpt>
      <trkpt lat="61.2194009" lon="14.5189851">
        <ele>462.051</ele>
        <time>2014-12-20T12:45:25Z</time>
      </trkpt>
      <trkpt lat="61.2194577" lon="14.5188179">
        <ele>462.531</ele>
        <time>2014-12-20T12:45:28Z</time>
      </trkpt>
      <trkpt lat="61.2195589" lon="14.5184532">
        <ele>462.531</ele>
        <time>2014-12-20T12:45:33Z</time>
      </trkpt>
      <trkpt lat="61.2196441" lon="14.5181698">
        <ele>462.531</ele>
        <time>2014-12-20T12:45:37Z</time>
      </trkpt>
      <trkpt lat="61.2197062" lon="14.5179524">
        <ele>462.051</ele>
        <time>2014-12-20T12:45:40Z</time>
      </trkpt>
      <trkpt lat="61.2197548" lon="14.5178056">
        <ele>462.531</ele>
        <time>2014-12-20T12:45:42Z</time>
      </trkpt>
      <trkpt lat="61.2198568" lon="14.5174933">
        <ele>463.012</ele>
        <time>2014-12-20T12:45:46Z</time>
      </trkpt>
      <trkpt lat="61.2199165" lon="14.5173349">
        <ele>463.012</ele>
        <time>2014-12-20T12:45:48Z</time>
      </trkpt>
      <trkpt lat="61.2199832" lon="14.5171783">
        <ele>463.012</ele>
        <time>2014-12-20T12:45:50Z</time>
      </trkpt>
      <trkpt lat="61.2201373" lon="14.5167273">
        <ele>463.973</ele>
        <time>2014-12-20T12:45:56Z</time>
      </trkpt>
      <trkpt lat="61.2201859" lon="14.5165895">
        <ele>464.454</ele>
        <time>2014-12-20T12:45:58Z</time>
      </trkpt>
      <trkpt lat="61.2202402" lon="14.5163775">
        <ele>464.935</ele>
        <time>2014-12-20T12:46:01Z</time>
      </trkpt>
      <trkpt lat="61.2203302" lon="14.5161071">
        <ele>465.416</ele>
        <time>2014-12-20T12:46:05Z</time>
      </trkpt>
      <trkpt lat="61.2205054" lon="14.5158068">
        <ele>464.935</ele>
        <time>2014-12-20T12:46:10Z</time>
      </trkpt>
      <trkpt lat="61.2208106" lon="14.5155631">
        <ele>462.051</ele>
        <time>2014-12-20T12:46:17Z</time>
      </trkpt>
      <trkpt lat="61.2210371" lon="14.5154383">
        <ele>461.57</ele>
        <time>2014-12-20T12:46:22Z</time>
      </trkpt>
      <trkpt lat="61.2212919" lon="14.5153078">
        <ele>461.089</ele>
        <time>2014-12-20T12:46:28Z</time>
      </trkpt>
      <trkpt lat="61.2214166" lon="14.5152637">
        <ele>461.089</ele>
        <time>2014-12-20T12:46:31Z</time>
      </trkpt>
      <trkpt lat="61.2215" lon="14.5152363">
        <ele>460.609</ele>
        <time>2014-12-20T12:46:33Z</time>
      </trkpt>
      <trkpt lat="61.2217589" lon="14.5151683">
        <ele>459.648</ele>
        <time>2014-12-20T12:46:39Z</time>
      </trkpt>
      <trkpt lat="61.2218005" lon="14.5151502">
        <ele>459.648</ele>
        <time>2014-12-20T12:46:40Z</time>
      </trkpt>
      <trkpt lat="61.2221175" lon="14.5150923">
        <ele>456.283</ele>
        <time>2014-12-20T12:46:46Z</time>
      </trkpt>
      <trkpt lat="61.2222454" lon="14.5150845">
        <ele>454.36</ele>
        <time>2014-12-20T12:46:48Z</time>
      </trkpt>
      <trkpt lat="61.2223672" lon="14.5150373">
        <ele>453.399</ele>
        <time>2014-12-20T12:46:50Z</time>
      </trkpt>
      <trkpt lat="61.2225541" lon="14.5149084">
        <ele>452.438</ele>
        <time>2014-12-20T12:46:54Z</time>
      </trkpt>
      <trkpt lat="61.2227137" lon="14.5147375">
        <ele>451.476</ele>
        <time>2014-12-20T12:46:58Z</time>
      </trkpt>
      <trkpt lat="61.2228867" lon="14.5145008">
        <ele>452.918</ele>
        <time>2014-12-20T12:47:04Z</time>
      </trkpt>
      <trkpt lat="61.2230403" lon="14.5142977">
        <ele>453.88</ele>
        <time>2014-12-20T12:47:09Z</time>
      </trkpt>
      <trkpt lat="61.2232131" lon="14.5140549">
        <ele>454.36</ele>
        <time>2014-12-20T12:47:14Z</time>
      </trkpt>
      <trkpt lat="61.2233197" lon="14.5138242">
        <ele>455.322</ele>
        <time>2014-12-20T12:47:18Z</time>
      </trkpt>
      <trkpt lat="61.2233436" lon="14.5137532">
        <ele>455.322</ele>
        <time>2014-12-20T12:47:19Z</time>
      </trkpt>
      <trkpt lat="61.223442" lon="14.5136082">
        <ele>455.322</ele>
        <time>2014-12-20T12:47:22Z</time>
      </trkpt>
      <trkpt lat="61.2236543" lon="14.5133823">
        <ele>455.802</ele>
        <time>2014-12-20T12:47:28Z</time>
      </trkpt>
      <trkpt lat="61.223783" lon="14.513245">
        <ele>457.725</ele>
        <time>2014-12-20T12:47:32Z</time>
      </trkpt>
      <trkpt lat="61.2238976" lon="14.5130631">
        <ele>460.609</ele>
        <time>2014-12-20T12:47:36Z</time>
      </trkpt>
      <trkpt lat="61.2240509" lon="14.5128752">
        <ele>463.012</ele>
        <time>2014-12-20T12:47:40Z</time>
      </trkpt>
      <trkpt lat="61.224231" lon="14.5126364">
        <ele>465.416</ele>
        <time>2014-12-20T12:47:45Z</time>
      </trkpt>
      <trkpt lat="61.2242681" lon="14.5125863">
        <ele>465.416</ele>
        <time>2014-12-20T12:47:46Z</time>
      </trkpt>
      <trkpt lat="61.2245175" lon="14.512308">
        <ele>465.896</ele>
        <time>2014-12-20T12:47:52Z</time>
      </trkpt>
      <trkpt lat="61.2245921" lon="14.5122179">
        <ele>466.377</ele>
        <time>2014-12-20T12:47:54Z</time>
      </trkpt>
      <trkpt lat="61.2246237" lon="14.5121697">
        <ele>465.896</ele>
        <time>2014-12-20T12:47:55Z</time>
      </trkpt>
      <trkpt lat="61.2247564" lon="14.5119916">
        <ele>464.454</ele>
        <time>2014-12-20T12:47:59Z</time>
      </trkpt>
      <trkpt lat="61.2249336" lon="14.511747">
        <ele>462.531</ele>
        <time>2014-12-20T12:48:04Z</time>
      </trkpt>
      <trkpt lat="61.2251115" lon="14.5114987">
        <ele>463.012</ele>
        <time>2014-12-20T12:48:09Z</time>
      </trkpt>
      <trkpt lat="61.2252009" lon="14.511344">
        <ele>462.531</ele>
        <time>2014-12-20T12:48:12Z</time>
      </trkpt>
      <trkpt lat="61.2252531" lon="14.5112281">
        <ele>462.531</ele>
        <time>2014-12-20T12:48:14Z</time>
      </trkpt>
      <trkpt lat="61.2253224" lon="14.511104">
        <ele>462.051</ele>
        <time>2014-12-20T12:48:16Z</time>
      </trkpt>
      <trkpt lat="61.2254834" lon="14.5107944">
        <ele>461.089</ele>
        <time>2014-12-20T12:48:21Z</time>
      </trkpt>
      <trkpt lat="61.2255551" lon="14.5105904">
        <ele>461.089</ele>
        <time>2014-12-20T12:48:24Z</time>
      </trkpt>
      <trkpt lat="61.2256482" lon="14.5103261">
        <ele>461.089</ele>
        <time>2014-12-20T12:48:28Z</time>
      </trkpt>
      <trkpt lat="61.2257504" lon="14.5100432">
        <ele>459.648</ele>
        <time>2014-12-20T12:48:32Z</time>
      </trkpt>
      <trkpt lat="61.2258953" lon="14.5095821">
        <ele>458.686</ele>
        <time>2014-12-20T12:48:38Z</time>
      </trkpt>
      <trkpt lat="61.225953" lon="14.5094273">
        <ele>457.725</ele>
        <time>2014-12-20T12:48:40Z</time>
      </trkpt>
      <trkpt lat="61.2260502" lon="14.5091182">
        <ele>456.764</ele>
        <time>2014-12-20T12:48:44Z</time>
      </trkpt>
      <trkpt lat="61.2260874" lon="14.508977">
        <ele>456.283</ele>
        <time>2014-12-20T12:48:46Z</time>
      </trkpt>
      <trkpt lat="61.226159" lon="14.5087849">
        <ele>455.322</ele>
        <time>2014-12-20T12:48:49Z</time>
      </trkpt>
      <trkpt lat="61.2262263" lon="14.5085913">
        <ele>454.841</ele>
        <time>2014-12-20T12:48:52Z</time>
      </trkpt>
      <trkpt lat="61.226321" lon="14.5082822">
        <ele>453.88</ele>
        <time>2014-12-20T12:48:57Z</time>
      </trkpt>
      <trkpt lat="61.2264422" lon="14.507983">
        <ele>454.36</ele>
        <time>2014-12-20T12:49:02Z</time>
      </trkpt>
      <trkpt lat="61.2265326" lon="14.5077086">
        <ele>454.36</ele>
        <time>2014-12-20T12:49:06Z</time>
      </trkpt>
      <trkpt lat="61.2266495" lon="14.5073836">
        <ele>455.322</ele>
        <time>2014-12-20T12:49:11Z</time>
      </trkpt>
      <trkpt lat="61.226708" lon="14.5071586">
        <ele>455.802</ele>
        <time>2014-12-20T12:49:14Z</time>
      </trkpt>
      <trkpt lat="61.2268848" lon="14.5067208">
        <ele>456.764</ele>
        <time>2014-12-20T12:49:20Z</time>
      </trkpt>
      <trkpt lat="61.2269174" lon="14.5066497">
        <ele>457.244</ele>
        <time>2014-12-20T12:49:21Z</time>
      </trkpt>
      <trkpt lat="61.2270385" lon="14.506432">
        <ele>456.764</ele>
        <time>2014-12-20T12:49:25Z</time>
      </trkpt>
      <trkpt lat="61.2270993" lon="14.506353">
        <ele>456.764</ele>
        <time>2014-12-20T12:49:27Z</time>
      </trkpt>
      <trkpt lat="61.2272543" lon="14.5061671">
        <ele>456.283</ele>
        <time>2014-12-20T12:49:32Z</time>
      </trkpt>
      <trkpt lat="61.2274012" lon="14.5060805">
        <ele>455.322</ele>
        <time>2014-12-20T12:49:36Z</time>
      </trkpt>
      <trkpt lat="61.2276026" lon="14.5059613">
        <ele>454.841</ele>
        <time>2014-12-20T12:49:41Z</time>
      </trkpt>
      <trkpt lat="61.2277455" lon="14.5058944">
        <ele>455.322</ele>
        <time>2014-12-20T12:49:44Z</time>
      </trkpt>
      <trkpt lat="61.2280239" lon="14.5057634">
        <ele>456.283</ele>
        <time>2014-12-20T12:49:50Z</time>
      </trkpt>
      <trkpt lat="61.2280683" lon="14.5057415">
        <ele>456.764</ele>
        <time>2014-12-20T12:49:51Z</time>
      </trkpt>
      <trkpt lat="61.2282259" lon="14.5056393">
        <ele>457.244</ele>
        <time>2014-12-20T12:49:55Z</time>
      </trkpt>
      <trkpt lat="61.2284066" lon="14.5055543">
        <ele>457.725</ele>
        <time>2014-12-20T12:50:00Z</time>
      </trkpt>
      <trkpt lat="61.2286995" lon="14.5054014">
        <ele>457.244</ele>
        <time>2014-12-20T12:50:07Z</time>
      </trkpt>
      <trkpt lat="61.2287838" lon="14.5053505">
        <ele>456.764</ele>
        <time>2014-12-20T12:50:09Z</time>
      </trkpt>
      <trkpt lat="61.2289567" lon="14.5052394">
        <ele>455.322</ele>
        <time>2014-12-20T12:50:13Z</time>
      </trkpt>
      <trkpt lat="61.2291147" lon="14.5051639">
        <ele>454.36</ele>
        <time>2014-12-20T12:50:17Z</time>
      </trkpt>
      <trkpt lat="61.2292588" lon="14.5050992">
        <ele>453.88</ele>
        <time>2014-12-20T12:50:21Z</time>
      </trkpt>
      <trkpt lat="61.2295169" lon="14.5049518">
        <ele>453.88</ele>
        <time>2014-12-20T12:50:28Z</time>
      </trkpt>
      <trkpt lat="61.2297049" lon="14.5048593">
        <ele>454.36</ele>
        <time>2014-12-20T12:50:33Z</time>
      </trkpt>
      <trkpt lat="61.2298897" lon="14.5047761">
        <ele>455.322</ele>
        <time>2014-12-20T12:50:38Z</time>
      </trkpt>
      <trkpt lat="61.2301555" lon="14.5046431">
        <ele>454.36</ele>
        <time>2014-12-20T12:50:44Z</time>
      </trkpt>
      <trkpt lat="61.230252" lon="14.5046016">
        <ele>453.88</ele>
        <time>2014-12-20T12:50:46Z</time>
      </trkpt>
      <trkpt lat="61.2304697" lon="14.5044995">
        <ele>452.918</ele>
        <time>2014-12-20T12:50:51Z</time>
      </trkpt>
      <trkpt lat="61.2306569" lon="14.504413">
        <ele>452.918</ele>
        <time>2014-12-20T12:50:55Z</time>
      </trkpt>
      <trkpt lat="61.2307721" lon="14.5043327">
        <ele>451.476</ele>
        <time>2014-12-20T12:50:58Z</time>
      </trkpt>
      <trkpt lat="61.2309196" lon="14.5042281">
        <ele>450.996</ele>
        <time>2014-12-20T12:51:02Z</time>
      </trkpt>
      <trkpt lat="61.2311755" lon="14.5041174">
        <ele>450.034</ele>
        <time>2014-12-20T12:51:08Z</time>
      </trkpt>
      <trkpt lat="61.2314267" lon="14.5040661">
        <ele>449.554</ele>
        <time>2014-12-20T12:51:13Z</time>
      </trkpt>
      <trkpt lat="61.231592" lon="14.5040763">
        <ele>448.112</ele>
        <time>2014-12-20T12:51:16Z</time>
      </trkpt>
      <trkpt lat="61.2318793" lon="14.5041193">
        <ele>446.189</ele>
        <time>2014-12-20T12:51:21Z</time>
      </trkpt>
      <trkpt lat="61.232002" lon="14.5041495">
        <ele>445.228</ele>
        <time>2014-12-20T12:51:23Z</time>
      </trkpt>
      <trkpt lat="61.2321275" lon="14.5041994">
        <ele>443.786</ele>
        <time>2014-12-20T12:51:25Z</time>
      </trkpt>
      <trkpt lat="61.2322513" lon="14.5042638">
        <ele>443.305</ele>
        <time>2014-12-20T12:51:27Z</time>
      </trkpt>
      <trkpt lat="61.2325986" lon="14.5044905">
        <ele>442.344</ele>
        <time>2014-12-20T12:51:33Z</time>
      </trkpt>
      <trkpt lat="61.2330605" lon="14.5047856">
        <ele>442.824</ele>
        <time>2014-12-20T12:51:41Z</time>
      </trkpt>
      <trkpt lat="61.2335225" lon="14.5050779">
        <ele>444.747</ele>
        <time>2014-12-20T12:51:49Z</time>
      </trkpt>
      <trkpt lat="61.2338203" lon="14.5052622">
        <ele>446.189</ele>
        <time>2014-12-20T12:51:55Z</time>
      </trkpt>
      <trkpt lat="61.2339787" lon="14.5053672">
        <ele>446.67</ele>
        <time>2014-12-20T12:51:59Z</time>
      </trkpt>
      <trkpt lat="61.2341204" lon="14.5054682">
        <ele>445.708</ele>
        <time>2014-12-20T12:52:03Z</time>
      </trkpt>
      <trkpt lat="61.2342897" lon="14.5056428">
        <ele>445.708</ele>
        <time>2014-12-20T12:52:09Z</time>
      </trkpt>
      <trkpt lat="61.234317" lon="14.5055045">
        <ele>446.189</ele>
        <time>2014-12-20T12:52:13Z</time>
      </trkpt>
      <trkpt lat="61.2342688" lon="14.5054372">
        <ele>446.189</ele>
        <time>2014-12-20T12:52:15Z</time>
      </trkpt>
      <trkpt lat="61.2341585" lon="14.5053782">
        <ele>445.708</ele>
        <time>2014-12-20T12:52:19Z</time>
      </trkpt>
      <trkpt lat="61.2340335" lon="14.5053263">
        <ele>444.747</ele>
        <time>2014-12-20T12:52:23Z</time>
      </trkpt>
      <trkpt lat="61.2339374" lon="14.5052598">
        <ele>443.786</ele>
        <time>2014-12-20T12:52:26Z</time>
      </trkpt>
      <trkpt lat="61.2337879" lon="14.5051529">
        <ele>443.305</ele>
        <time>2014-12-20T12:52:30Z</time>
      </trkpt>
      <trkpt lat="61.2336828" lon="14.5050963">
        <ele>442.344</ele>
        <time>2014-12-20T12:52:33Z</time>
      </trkpt>
      <trkpt lat="61.233532" lon="14.5050361">
        <ele>442.344</ele>
        <time>2014-12-20T12:52:37Z</time>
      </trkpt>
      <trkpt lat="61.233394" lon="14.5049655">
        <ele>442.824</ele>
        <time>2014-12-20T12:52:41Z</time>
      </trkpt>
      <trkpt lat="61.2331997" lon="14.5048782">
        <ele>441.863</ele>
        <time>2014-12-20T12:52:46Z</time>
      </trkpt>
      <trkpt lat="61.2330569" lon="14.5047902">
        <ele>440.902</ele>
        <time>2014-12-20T12:52:50Z</time>
      </trkpt>
      <trkpt lat="61.2328875" lon="14.5047124">
        <ele>438.979</ele>
        <time>2014-12-20T12:52:55Z</time>
      </trkpt>
      <trkpt lat="61.2328224" lon="14.5046833">
        <ele>438.499</ele>
        <time>2014-12-20T12:52:57Z</time>
      </trkpt>
      <trkpt lat="61.2326788" lon="14.5045824">
        <ele>438.499</ele>
        <time>2014-12-20T12:53:02Z</time>
      </trkpt>
      <trkpt lat="61.232619" lon="14.5045456">
        <ele>438.499</ele>
        <time>2014-12-20T12:53:04Z</time>
      </trkpt>
      <trkpt lat="61.2324255" lon="14.5044301">
        <ele>439.94</ele>
        <time>2014-12-20T12:53:10Z</time>
      </trkpt>
      <trkpt lat="61.2323056" lon="14.5043735">
        <ele>441.382</ele>
        <time>2014-12-20T12:53:14Z</time>
      </trkpt>
      <trkpt lat="61.232175" lon="14.5042978">
        <ele>442.344</ele>
        <time>2014-12-20T12:53:18Z</time>
      </trkpt>
      <trkpt lat="61.2320545" lon="14.5042447">
        <ele>442.824</ele>
        <time>2014-12-20T12:53:22Z</time>
      </trkpt>
      <trkpt lat="61.2319337" lon="14.5041883">
        <ele>444.266</ele>
        <time>2014-12-20T12:53:26Z</time>
      </trkpt>
      <trkpt lat="61.2318406" lon="14.5041277">
        <ele>444.747</ele>
        <time>2014-12-20T12:53:29Z</time>
      </trkpt>
      <trkpt lat="61.2317417" lon="14.5040825">
        <ele>445.708</ele>
        <time>2014-12-20T12:53:32Z</time>
      </trkpt>
      <trkpt lat="61.2316329" lon="14.5040433">
        <ele>447.631</ele>
        <time>2014-12-20T12:53:36Z</time>
      </trkpt>
      <trkpt lat="61.231528" lon="14.5039985">
        <ele>447.631</ele>
        <time>2014-12-20T12:53:40Z</time>
      </trkpt>
      <trkpt lat="61.2314154" lon="14.504011">
        <ele>448.112</ele>
        <time>2014-12-20T12:53:44Z</time>
      </trkpt>
      <trkpt lat="61.2313053" lon="14.5040303">
        <ele>449.073</ele>
        <time>2014-12-20T12:53:48Z</time>
      </trkpt>
      <trkpt lat="61.2311769" lon="14.5040742">
        <ele>450.034</ele>
        <time>2014-12-20T12:53:52Z</time>
      </trkpt>
      <trkpt lat="61.2310485" lon="14.5041406">
        <ele>450.996</ele>
        <time>2014-12-20T12:53:56Z</time>
      </trkpt>
      <trkpt lat="61.2309204" lon="14.5042318">
        <ele>452.918</ele>
        <time>2014-12-20T12:54:00Z</time>
      </trkpt>
      <trkpt lat="61.2307633" lon="14.504312">
        <ele>453.399</ele>
        <time>2014-12-20T12:54:05Z</time>
      </trkpt>
      <trkpt lat="61.2306353" lon="14.5043742">
        <ele>453.399</ele>
        <time>2014-12-20T12:54:09Z</time>
      </trkpt>
      <trkpt lat="61.2305005" lon="14.5044223">
        <ele>452.438</ele>
        <time>2014-12-20T12:54:13Z</time>
      </trkpt>
      <trkpt lat="61.2303452" lon="14.5045027">
        <ele>451.476</ele>
        <time>2014-12-20T12:54:18Z</time>
      </trkpt>
      <trkpt lat="61.2302078" lon="14.5045667">
        <ele>451.476</ele>
        <time>2014-12-20T12:54:23Z</time>
      </trkpt>
      <trkpt lat="61.2300675" lon="14.5046601">
        <ele>451.957</ele>
        <time>2014-12-20T12:54:28Z</time>
      </trkpt>
      <trkpt lat="61.229942" lon="14.5047103">
        <ele>452.918</ele>
        <time>2014-12-20T12:54:33Z</time>
      </trkpt>
      <trkpt lat="61.2298321" lon="14.5047464">
        <ele>454.36</ele>
        <time>2014-12-20T12:54:37Z</time>
      </trkpt>
      <trkpt lat="61.2296814" lon="14.5048388">
        <ele>455.802</ele>
        <time>2014-12-20T12:54:42Z</time>
      </trkpt>
      <trkpt lat="61.2295576" lon="14.5049132">
        <ele>456.764</ele>
        <time>2014-12-20T12:54:46Z</time>
      </trkpt>
      <trkpt lat="61.2294208" lon="14.504987">
        <ele>455.802</ele>
        <time>2014-12-20T12:54:50Z</time>
      </trkpt>
      <trkpt lat="61.2292525" lon="14.5050854">
        <ele>454.36</ele>
        <time>2014-12-20T12:54:54Z</time>
      </trkpt>
      <trkpt lat="61.2290453" lon="14.505222">
        <ele>452.438</ele>
        <time>2014-12-20T12:54:59Z</time>
      </trkpt>
      <trkpt lat="61.2290076" lon="14.5052403">
        <ele>451.476</ele>
        <time>2014-12-20T12:55:00Z</time>
      </trkpt>
      <trkpt lat="61.2288456" lon="14.5053096">
        <ele>450.996</ele>
        <time>2014-12-20T12:55:04Z</time>
      </trkpt>
      <trkpt lat="61.2287713" lon="14.5053466">
        <ele>450.515</ele>
        <time>2014-12-20T12:55:06Z</time>
      </trkpt>
      <trkpt lat="61.2286973" lon="14.5053805">
        <ele>451.476</ele>
        <time>2014-12-20T12:55:08Z</time>
      </trkpt>
      <trkpt lat="61.2285415" lon="14.5054589">
        <ele>451.957</ele>
        <time>2014-12-20T12:55:13Z</time>
      </trkpt>
      <trkpt lat="61.2284109" lon="14.5055169">
        <ele>452.918</ele>
        <time>2014-12-20T12:55:17Z</time>
      </trkpt>
      <trkpt lat="61.2282487" lon="14.5055883">
        <ele>453.88</ele>
        <time>2014-12-20T12:55:21Z</time>
      </trkpt>
      <trkpt lat="61.228205" lon="14.5056122">
        <ele>453.88</ele>
        <time>2014-12-20T12:55:22Z</time>
      </trkpt>
      <trkpt lat="61.2280203" lon="14.5057237">
        <ele>456.283</ele>
        <time>2014-12-20T12:55:27Z</time>
      </trkpt>
      <trkpt lat="61.2279119" lon="14.5057791">
        <ele>456.764</ele>
        <time>2014-12-20T12:55:30Z</time>
      </trkpt>
      <trkpt lat="61.2278492" lon="14.5058075">
        <ele>456.764</ele>
        <time>2014-12-20T12:55:32Z</time>
      </trkpt>
      <trkpt lat="61.2278207" lon="14.5058216">
        <ele>457.244</ele>
        <time>2014-12-20T12:55:33Z</time>
      </trkpt>
      <trkpt lat="61.2277255" lon="14.5058737">
        <ele>458.686</ele>
        <time>2014-12-20T12:55:46Z</time>
      </trkpt>
      <trkpt lat="61.2277131" lon="14.5058693">
        <ele>458.686</ele>
        <time>2014-12-20T12:55:47Z</time>
      </trkpt>
      <trkpt lat="61.2276006" lon="14.5059368">
        <ele>458.206</ele>
        <time>2014-12-20T12:55:51Z</time>
      </trkpt>
      <trkpt lat="61.2274687" lon="14.5060199">
        <ele>458.206</ele>
        <time>2014-12-20T12:55:55Z</time>
      </trkpt>
      <trkpt lat="61.2273453" lon="14.5060958">
        <ele>457.725</ele>
        <time>2014-12-20T12:55:59Z</time>
      </trkpt>
      <trkpt lat="61.2271652" lon="14.5063147">
        <ele>457.725</ele>
        <time>2014-12-20T12:56:04Z</time>
      </trkpt>
      <trkpt lat="61.2270227" lon="14.5065586">
        <ele>456.764</ele>
        <time>2014-12-20T12:56:08Z</time>
      </trkpt>
      <trkpt lat="61.2269561" lon="14.5066742">
        <ele>456.764</ele>
        <time>2014-12-20T12:56:10Z</time>
      </trkpt>
      <trkpt lat="61.22681" lon="14.5070374">
        <ele>456.283</ele>
        <time>2014-12-20T12:56:15Z</time>
      </trkpt>
      <trkpt lat="61.2266885" lon="14.5073406">
        <ele>456.764</ele>
        <time>2014-12-20T12:56:20Z</time>
      </trkpt>
      <trkpt lat="61.2265904" lon="14.5076335">
        <ele>458.206</ele>
        <time>2014-12-20T12:56:25Z</time>
      </trkpt>
      <trkpt lat="61.2265751" lon="14.5076913">
        <ele>458.206</ele>
        <time>2014-12-20T12:56:26Z</time>
      </trkpt>
      <trkpt lat="61.226485" lon="14.5079494">
        <ele>460.128</ele>
        <time>2014-12-20T12:56:31Z</time>
      </trkpt>
      <trkpt lat="61.2263894" lon="14.5082396">
        <ele>460.609</ele>
        <time>2014-12-20T12:56:35Z</time>
      </trkpt>
      <trkpt lat="61.2262877" lon="14.5086303">
        <ele>460.128</ele>
        <time>2014-12-20T12:56:40Z</time>
      </trkpt>
      <trkpt lat="61.2262642" lon="14.5087068">
        <ele>459.648</ele>
        <time>2014-12-20T12:56:41Z</time>
      </trkpt>
      <trkpt lat="61.2261657" lon="14.5090855">
        <ele>457.725</ele>
        <time>2014-12-20T12:56:46Z</time>
      </trkpt>
      <trkpt lat="61.2261114" lon="14.5092118">
        <ele>457.244</ele>
        <time>2014-12-20T12:56:48Z</time>
      </trkpt>
      <trkpt lat="61.2259584" lon="14.5095504">
        <ele>455.322</ele>
        <time>2014-12-20T12:56:54Z</time>
      </trkpt>
      <trkpt lat="61.2258778" lon="14.5097758">
        <ele>453.88</ele>
        <time>2014-12-20T12:56:58Z</time>
      </trkpt>
      <trkpt lat="61.2257923" lon="14.510034">
        <ele>453.399</ele>
        <time>2014-12-20T12:57:02Z</time>
      </trkpt>
      <trkpt lat="61.2256996" lon="14.5102852">
        <ele>452.918</ele>
        <time>2014-12-20T12:57:06Z</time>
      </trkpt>
      <trkpt lat="61.225613" lon="14.5105457">
        <ele>453.88</ele>
        <time>2014-12-20T12:57:10Z</time>
      </trkpt>
      <trkpt lat="61.2255101" lon="14.5108399">
        <ele>453.88</ele>
        <time>2014-12-20T12:57:14Z</time>
      </trkpt>
      <trkpt lat="61.2254107" lon="14.5111197">
        <ele>454.36</ele>
        <time>2014-12-20T12:57:18Z</time>
      </trkpt>
      <trkpt lat="61.2253681" lon="14.5112589">
        <ele>455.322</ele>
        <time>2014-12-20T12:57:20Z</time>
      </trkpt>
      <trkpt lat="61.2252496" lon="14.5114954">
        <ele>456.764</ele>
        <time>2014-12-20T12:57:24Z</time>
      </trkpt>
      <trkpt lat="61.2250376" lon="14.5118717">
        <ele>458.206</ele>
        <time>2014-12-20T12:57:30Z</time>
      </trkpt>
      <trkpt lat="61.2249304" lon="14.5120595">
        <ele>458.686</ele>
        <time>2014-12-20T12:57:33Z</time>
      </trkpt>
      <trkpt lat="61.2247139" lon="14.5122889">
        <ele>459.648</ele>
        <time>2014-12-20T12:57:39Z</time>
      </trkpt>
      <trkpt lat="61.2245762" lon="14.5124272">
        <ele>459.167</ele>
        <time>2014-12-20T12:57:43Z</time>
      </trkpt>
      <trkpt lat="61.224546" lon="14.5124623">
        <ele>459.167</ele>
        <time>2014-12-20T12:57:44Z</time>
      </trkpt>
      <trkpt lat="61.2243449" lon="14.5127218">
        <ele>458.686</ele>
        <time>2014-12-20T12:57:50Z</time>
      </trkpt>
      <trkpt lat="61.2241777" lon="14.5128758">
        <ele>458.206</ele>
        <time>2014-12-20T12:57:55Z</time>
      </trkpt>
      <trkpt lat="61.2240062" lon="14.5130683">
        <ele>458.206</ele>
        <time>2014-12-20T12:58:00Z</time>
      </trkpt>
      <trkpt lat="61.2238353" lon="14.5132855">
        <ele>458.206</ele>
        <time>2014-12-20T12:58:05Z</time>
      </trkpt>
      <trkpt lat="61.2236364" lon="14.5135373">
        <ele>459.648</ele>
        <time>2014-12-20T12:58:11Z</time>
      </trkpt>
      <trkpt lat="61.223464" lon="14.5138034">
        <ele>459.648</ele>
        <time>2014-12-20T12:58:16Z</time>
      </trkpt>
      <trkpt lat="61.2232934" lon="14.5140287">
        <ele>459.167</ele>
        <time>2014-12-20T12:58:21Z</time>
      </trkpt>
      <trkpt lat="61.2232247" lon="14.5141075">
        <ele>459.167</ele>
        <time>2014-12-20T12:58:23Z</time>
      </trkpt>
      <trkpt lat="61.2230428" lon="14.5143231">
        <ele>458.686</ele>
        <time>2014-12-20T12:58:29Z</time>
      </trkpt>
      <trkpt lat="61.222856" lon="14.5145454">
        <ele>458.206</ele>
        <time>2014-12-20T12:58:35Z</time>
      </trkpt>
      <trkpt lat="61.2227191" lon="14.5147307">
        <ele>458.206</ele>
        <time>2014-12-20T12:58:39Z</time>
      </trkpt>
      <trkpt lat="61.2225688" lon="14.5149135">
        <ele>458.686</ele>
        <time>2014-12-20T12:58:43Z</time>
      </trkpt>
      <trkpt lat="61.2224422" lon="14.5150348">
        <ele>458.686</ele>
        <time>2014-12-20T12:58:46Z</time>
      </trkpt>
      <trkpt lat="61.2222362" lon="14.5151493">
        <ele>459.167</ele>
        <time>2014-12-20T12:58:51Z</time>
      </trkpt>
      <trkpt lat="61.2221637" lon="14.5151823">
        <ele>459.167</ele>
        <time>2014-12-20T12:58:53Z</time>
      </trkpt>
      <trkpt lat="61.2220491" lon="14.515227">
        <ele>458.686</ele>
        <time>2014-12-20T12:58:56Z</time>
      </trkpt>
      <trkpt lat="61.2218832" lon="14.5152736">
        <ele>460.128</ele>
        <time>2014-12-20T12:59:01Z</time>
      </trkpt>
      <trkpt lat="61.2217615" lon="14.5153006">
        <ele>460.609</ele>
        <time>2014-12-20T12:59:05Z</time>
      </trkpt>
      <trkpt lat="61.2216388" lon="14.5153374">
        <ele>461.57</ele>
        <time>2014-12-20T12:59:09Z</time>
      </trkpt>
      <trkpt lat="61.2214933" lon="14.5153698">
        <ele>460.609</ele>
        <time>2014-12-20T12:59:13Z</time>
      </trkpt>
      <trkpt lat="61.2213215" lon="14.5154214">
        <ele>460.609</ele>
        <time>2014-12-20T12:59:18Z</time>
      </trkpt>
      <trkpt lat="61.2211899" lon="14.5154571">
        <ele>460.609</ele>
        <time>2014-12-20T12:59:22Z</time>
      </trkpt>
      <trkpt lat="61.2210571" lon="14.5155027">
        <ele>460.609</ele>
        <time>2014-12-20T12:59:26Z</time>
      </trkpt>
      <trkpt lat="61.2209235" lon="14.5155575">
        <ele>461.089</ele>
        <time>2014-12-20T12:59:30Z</time>
      </trkpt>
      <trkpt lat="61.2207548" lon="14.5156476">
        <ele>461.57</ele>
        <time>2014-12-20T12:59:35Z</time>
      </trkpt>
      <trkpt lat="61.220664" lon="14.5156988">
        <ele>461.089</ele>
        <time>2014-12-20T12:59:38Z</time>
      </trkpt>
      <trkpt lat="61.2205826" lon="14.515765">
        <ele>461.089</ele>
        <time>2014-12-20T12:59:41Z</time>
      </trkpt>
      <trkpt lat="61.2204295" lon="14.5159595">
        <ele>461.089</ele>
        <time>2014-12-20T12:59:46Z</time>
      </trkpt>
      <trkpt lat="61.2203335" lon="14.5161206">
        <ele>460.128</ele>
        <time>2014-12-20T12:59:49Z</time>
      </trkpt>
      <trkpt lat="61.2202432" lon="14.516365">
        <ele>460.609</ele>
        <time>2014-12-20T12:59:53Z</time>
      </trkpt>
      <trkpt lat="61.2201258" lon="14.5166997">
        <ele>461.57</ele>
        <time>2014-12-20T12:59:58Z</time>
      </trkpt>
      <trkpt lat="61.2200262" lon="14.5169639">
        <ele>462.531</ele>
        <time>2014-12-20T13:00:02Z</time>
      </trkpt>
      <trkpt lat="61.2199342" lon="14.5173114">
        <ele>464.454</ele>
        <time>2014-12-20T13:00:07Z</time>
      </trkpt>
      <trkpt lat="61.2198646" lon="14.517591">
        <ele>465.416</ele>
        <time>2014-12-20T13:00:11Z</time>
      </trkpt>
      <trkpt lat="61.2197563" lon="14.51786">
        <ele>465.896</ele>
        <time>2014-12-20T13:00:16Z</time>
      </trkpt>
      <trkpt lat="61.2196618" lon="14.518072">
        <ele>465.416</ele>
        <time>2014-12-20T13:00:20Z</time>
      </trkpt>
      <trkpt lat="61.2195639" lon="14.5183775">
        <ele>465.896</ele>
        <time>2014-12-20T13:00:25Z</time>
      </trkpt>
      <trkpt lat="61.2194466" lon="14.5187345">
        <ele>465.416</ele>
        <time>2014-12-20T13:00:30Z</time>
      </trkpt>
      <trkpt lat="61.2193289" lon="14.5191262">
        <ele>464.454</ele>
        <time>2014-12-20T13:00:36Z</time>
      </trkpt>
      <trkpt lat="61.2192465" lon="14.51937">
        <ele>464.935</ele>
        <time>2014-12-20T13:00:40Z</time>
      </trkpt>
      <trkpt lat="61.2191267" lon="14.5196767">
        <ele>464.935</ele>
        <time>2014-12-20T13:00:45Z</time>
      </trkpt>
      <trkpt lat="61.2189001" lon="14.5201936">
        <ele>461.57</ele>
        <time>2014-12-20T13:00:52Z</time>
      </trkpt>
      <trkpt lat="61.2186221" lon="14.5207261">
        <ele>460.609</ele>
        <time>2014-12-20T13:00:59Z</time>
      </trkpt>
      <trkpt lat="61.2185555" lon="14.520895">
        <ele>460.128</ele>
        <time>2014-12-20T13:01:01Z</time>
      </trkpt>
      <trkpt lat="61.2184299" lon="14.5211562">
        <ele>460.128</ele>
        <time>2014-12-20T13:01:05Z</time>
      </trkpt>
      <trkpt lat="61.2183804" lon="14.5212552">
        <ele>459.648</ele>
        <time>2014-12-20T13:01:07Z</time>
      </trkpt>
      <trkpt lat="61.2182501" lon="14.5214442">
        <ele>459.648</ele>
        <time>2014-12-20T13:01:12Z</time>
      </trkpt>
      <trkpt lat="61.2181451" lon="14.5216239">
        <ele>460.128</ele>
        <time>2014-12-20T13:01:17Z</time>
      </trkpt>
      <trkpt lat="61.2180166" lon="14.5218758">
        <ele>461.089</ele>
        <time>2014-12-20T13:01:22Z</time>
      </trkpt>
      <trkpt lat="61.2179522" lon="14.5219916">
        <ele>462.531</ele>
        <time>2014-12-20T13:01:27Z</time>
      </trkpt>
      <trkpt lat="61.2178839" lon="14.5220939">
        <ele>464.935</ele>
        <time>2014-12-20T13:01:37Z</time>
      </trkpt>
      <trkpt lat="61.21783" lon="14.5221709">
        <ele>465.416</ele>
        <time>2014-12-20T13:01:43Z</time>
      </trkpt>
      <trkpt lat="61.2177159" lon="14.522328">
        <ele>464.935</ele>
        <time>2014-12-20T13:01:48Z</time>
      </trkpt>
      <trkpt lat="61.2176398" lon="14.5224543">
        <ele>465.416</ele>
        <time>2014-12-20T13:01:52Z</time>
      </trkpt>
      <trkpt lat="61.2175451" lon="14.5226686">
        <ele>473.587</ele>
        <time>2014-12-20T13:03:18Z</time>
      </trkpt>
      <trkpt lat="61.2175379" lon="14.5226899">
        <ele>473.587</ele>
        <time>2014-12-20T13:03:19Z</time>
      </trkpt>
      <trkpt lat="61.2175301" lon="14.5227107">
        <ele>473.106</ele>
        <time>2014-12-20T13:03:20Z</time>
      </trkpt>
      <trkpt lat="61.2174394" lon="14.5228797">
        <ele>471.183</ele>
        <time>2014-12-20T13:03:24Z</time>
      </trkpt>
      <trkpt lat="61.2172659" lon="14.5231743">
        <ele>468.78</ele>
        <time>2014-12-20T13:03:30Z</time>
      </trkpt>
      <trkpt lat="61.2170986" lon="14.5235424">
        <ele>468.299</ele>
        <time>2014-12-20T13:03:36Z</time>
      </trkpt>
      <trkpt lat="61.2170147" lon="14.523805">
        <ele>467.819</ele>
        <time>2014-12-20T13:03:40Z</time>
      </trkpt>
      <trkpt lat="61.2168981" lon="14.5240507">
        <ele>466.857</ele>
        <time>2014-12-20T13:03:44Z</time>
      </trkpt>
      <trkpt lat="61.2167401" lon="14.5242829">
        <ele>466.377</ele>
        <time>2014-12-20T13:03:48Z</time>
      </trkpt>
      <trkpt lat="61.2165307" lon="14.5245382">
        <ele>464.935</ele>
        <time>2014-12-20T13:03:52Z</time>
      </trkpt>
      <trkpt lat="61.2160714" lon="14.5248848">
        <ele>461.089</ele>
        <time>2014-12-20T13:03:59Z</time>
      </trkpt>
      <trkpt lat="61.2156746" lon="14.5251234">
        <ele>460.609</ele>
        <time>2014-12-20T13:04:05Z</time>
      </trkpt>
      <trkpt lat="61.2155098" lon="14.5252123">
        <ele>461.089</ele>
        <time>2014-12-20T13:04:09Z</time>
      </trkpt>
      <trkpt lat="61.2154844" lon="14.5252276">
        <ele>461.57</ele>
        <time>2014-12-20T13:04:10Z</time>
      </trkpt>
      <trkpt lat="61.2154042" lon="14.5252857">
        <ele>462.531</ele>
        <time>2014-12-20T13:04:14Z</time>
      </trkpt>
      <trkpt lat="61.2152444" lon="14.5253752">
        <ele>461.089</ele>
        <time>2014-12-20T13:04:19Z</time>
      </trkpt>
      <trkpt lat="61.2151058" lon="14.5255005">
        <ele>459.167</ele>
        <time>2014-12-20T13:04:23Z</time>
      </trkpt>
      <trkpt lat="61.2149224" lon="14.525606">
        <ele>459.167</ele>
        <time>2014-12-20T13:04:28Z</time>
      </trkpt>
      <trkpt lat="61.2147635" lon="14.5256696">
        <ele>460.128</ele>
        <time>2014-12-20T13:04:32Z</time>
      </trkpt>
      <trkpt lat="61.2145796" lon="14.5257849">
        <ele>459.648</ele>
        <time>2014-12-20T13:04:37Z</time>
      </trkpt>
      <trkpt lat="61.2144288" lon="14.5258952">
        <ele>460.128</ele>
        <time>2014-12-20T13:04:41Z</time>
      </trkpt>
      <trkpt lat="61.2142242" lon="14.5260511">
        <ele>459.648</ele>
        <time>2014-12-20T13:04:46Z</time>
      </trkpt>
      <trkpt lat="61.2140079" lon="14.5262544">
        <ele>458.686</ele>
        <time>2014-12-20T13:04:51Z</time>
      </trkpt>
      <trkpt lat="61.2139697" lon="14.5262915">
        <ele>458.686</ele>
        <time>2014-12-20T13:04:52Z</time>
      </trkpt>
      <trkpt lat="61.2138522" lon="14.5263622">
        <ele>458.686</ele>
        <time>2014-12-20T13:04:55Z</time>
      </trkpt>
      <trkpt lat="61.2137789" lon="14.5264249">
        <ele>458.206</ele>
        <time>2014-12-20T13:04:57Z</time>
      </trkpt>
      <trkpt lat="61.2136983" lon="14.5265325">
        <ele>457.725</ele>
        <time>2014-12-20T13:04:59Z</time>
      </trkpt>
      <trkpt lat="61.2136011" lon="14.526627">
        <ele>457.244</ele>
        <time>2014-12-20T13:05:01Z</time>
      </trkpt>
      <trkpt lat="61.2134558" lon="14.5267745">
        <ele>456.764</ele>
        <time>2014-12-20T13:05:04Z</time>
      </trkpt>
      <trkpt lat="61.2132328" lon="14.5270305">
        <ele>455.322</ele>
        <time>2014-12-20T13:05:09Z</time>
      </trkpt>
      <trkpt lat="61.2130074" lon="14.5272262">
        <ele>455.322</ele>
        <time>2014-12-20T13:05:16Z</time>
      </trkpt>
      <trkpt lat="61.2128598" lon="14.5273604">
        <ele>457.244</ele>
        <time>2014-12-20T13:05:22Z</time>
      </trkpt>
      <trkpt lat="61.2127536" lon="14.5274602">
        <ele>457.244</ele>
        <time>2014-12-20T13:05:26Z</time>
      </trkpt>
      <trkpt lat="61.2126214" lon="14.5276008">
        <ele>458.206</ele>
        <time>2014-12-20T13:05:31Z</time>
      </trkpt>
      <trkpt lat="61.2125111" lon="14.5277198">
        <ele>458.686</ele>
        <time>2014-12-20T13:05:35Z</time>
      </trkpt>
      <trkpt lat="61.2123542" lon="14.5278918">
        <ele>459.648</ele>
        <time>2014-12-20T13:05:39Z</time>
      </trkpt>
      <trkpt lat="61.2122157" lon="14.5280295">
        <ele>459.167</ele>
        <time>2014-12-20T13:05:43Z</time>
      </trkpt>
      <trkpt lat="61.212083" lon="14.5281814">
        <ele>458.686</ele>
        <time>2014-12-20T13:05:47Z</time>
      </trkpt>
      <trkpt lat="61.2118636" lon="14.5284181">
        <ele>457.244</ele>
        <time>2014-12-20T13:05:52Z</time>
      </trkpt>
      <trkpt lat="61.2117212" lon="14.5285791">
        <ele>456.764</ele>
        <time>2014-12-20T13:05:55Z</time>
      </trkpt>
      <trkpt lat="61.2116045" lon="14.528694">
        <ele>455.322</ele>
        <time>2014-12-20T13:05:58Z</time>
      </trkpt>
      <trkpt lat="61.211514" lon="14.5287705">
        <ele>455.322</ele>
        <time>2014-12-20T13:06:01Z</time>
      </trkpt>
      <trkpt lat="61.2113704" lon="14.5289046">
        <ele>456.764</ele>
        <time>2014-12-20T13:06:06Z</time>
      </trkpt>
      <trkpt lat="61.2112533" lon="14.5290216">
        <ele>456.764</ele>
        <time>2014-12-20T13:06:10Z</time>
      </trkpt>
      <trkpt lat="61.2111016" lon="14.5291806">
        <ele>456.283</ele>
        <time>2014-12-20T13:06:15Z</time>
      </trkpt>
      <trkpt lat="61.2109752" lon="14.5293008">
        <ele>456.764</ele>
        <time>2014-12-20T13:06:20Z</time>
      </trkpt>
      <trkpt lat="61.2108591" lon="14.5294162">
        <ele>457.244</ele>
        <time>2014-12-20T13:06:25Z</time>
      </trkpt>
      <trkpt lat="61.2107308" lon="14.5295552">
        <ele>457.244</ele>
        <time>2014-12-20T13:06:30Z</time>
      </trkpt>
      <trkpt lat="61.210554" lon="14.5297835">
        <ele>456.283</ele>
        <time>2014-12-20T13:06:36Z</time>
      </trkpt>
      <trkpt lat="61.2104311" lon="14.530084">
        <ele>456.283</ele>
        <time>2014-12-20T13:06:41Z</time>
      </trkpt>
      <trkpt lat="61.2104421" lon="14.5303171">
        <ele>456.764</ele>
        <time>2014-12-20T13:06:44Z</time>
      </trkpt>
      <trkpt lat="61.2105611" lon="14.5305263">
        <ele>457.725</ele>
        <time>2014-12-20T13:06:49Z</time>
      </trkpt>
      <trkpt lat="61.2106902" lon="14.530542">
        <ele>459.648</ele>
        <time>2014-12-20T13:06:53Z</time>
      </trkpt>
      <trkpt lat="61.2108125" lon="14.530441">
        <ele>460.609</ele>
        <time>2014-12-20T13:06:57Z</time>
      </trkpt>
      <trkpt lat="61.2109596" lon="14.5303789">
        <ele>462.051</ele>
        <time>2014-12-20T13:07:02Z</time>
      </trkpt>
      <trkpt lat="61.2110041" lon="14.5304501">
        <ele>462.531</ele>
        <time>2014-12-20T13:07:04Z</time>
      </trkpt>
      <trkpt lat="61.2110296" lon="14.5309113">
        <ele>462.051</ele>
        <time>2014-12-20T13:07:09Z</time>
      </trkpt>
      <trkpt lat="61.2110237" lon="14.5310385">
        <ele>461.57</ele>
        <time>2014-12-20T13:07:10Z</time>
      </trkpt>
      <trkpt lat="61.2110358" lon="14.5315999">
        <ele>459.648</ele>
        <time>2014-12-20T13:07:15Z</time>
      </trkpt>
      <trkpt lat="61.211067" lon="14.5319319">
        <ele>457.725</ele>
        <time>2014-12-20T13:07:18Z</time>
      </trkpt>
      <trkpt lat="61.2111333" lon="14.5325604">
        <ele>454.36</ele>
        <time>2014-12-20T13:07:23Z</time>
      </trkpt>
      <trkpt lat="61.2111749" lon="14.5331071">
        <ele>453.399</ele>
        <time>2014-12-20T13:07:28Z</time>
      </trkpt>
      <trkpt lat="61.2111698" lon="14.5334656">
        <ele>454.36</ele>
        <time>2014-12-20T13:07:32Z</time>
      </trkpt>
      <trkpt lat="61.2110731" lon="14.533634">
        <ele>454.36</ele>
        <time>2014-12-20T13:07:35Z</time>
      </trkpt>
      <trkpt lat="61.2109599" lon="14.5336241">
        <ele>454.36</ele>
        <time>2014-12-20T13:07:38Z</time>
      </trkpt>
      <trkpt lat="61.2109322" lon="14.5335786">
        <ele>454.36</ele>
        <time>2014-12-20T13:07:39Z</time>
      </trkpt>
      <trkpt lat="61.210841" lon="14.5331665">
        <ele>456.283</ele>
        <time>2014-12-20T13:07:45Z</time>
      </trkpt>
      <trkpt lat="61.2108308" lon="14.5330781">
        <ele>456.764</ele>
        <time>2014-12-20T13:07:46Z</time>
      </trkpt>
      <trkpt lat="61.2108007" lon="14.5326455">
        <ele>459.167</ele>
        <time>2014-12-20T13:07:51Z</time>
      </trkpt>
      <trkpt lat="61.2107648" lon="14.5322302">
        <ele>460.128</ele>
        <time>2014-12-20T13:07:56Z</time>
      </trkpt>
      <trkpt lat="61.210726" lon="14.5317809">
        <ele>461.57</ele>
        <time>2014-12-20T13:08:02Z</time>
      </trkpt>
      <trkpt lat="61.210685" lon="14.5314441">
        <ele>462.051</ele>
        <time>2014-12-20T13:08:07Z</time>
      </trkpt>
      <trkpt lat="61.2106693" lon="14.5311267">
        <ele>462.051</ele>
        <time>2014-12-20T13:08:11Z</time>
      </trkpt>
      <trkpt lat="61.2106897" lon="14.5307626">
        <ele>461.57</ele>
        <time>2014-12-20T13:08:16Z</time>
      </trkpt>
      <trkpt lat="61.2107472" lon="14.5305443">
        <ele>462.051</ele>
        <time>2014-12-20T13:08:20Z</time>
      </trkpt>
      <trkpt lat="61.2108695" lon="14.5303576">
        <ele>462.531</ele>
        <time>2014-12-20T13:08:25Z</time>
      </trkpt>
      <trkpt lat="61.210963" lon="14.5303965">
        <ele>463.973</ele>
        <time>2014-12-20T13:08:29Z</time>
      </trkpt>
      <trkpt lat="61.2110242" lon="14.5306114">
        <ele>463.973</ele>
        <time>2014-12-20T13:08:33Z</time>
      </trkpt>
      <trkpt lat="61.2109813" lon="14.5311834">
        <ele>462.531</ele>
        <time>2014-12-20T13:08:38Z</time>
      </trkpt>
      <trkpt lat="61.2109846" lon="14.5313003">
        <ele>462.051</ele>
        <time>2014-12-20T13:08:39Z</time>
      </trkpt>
      <trkpt lat="61.2110404" lon="14.5319567">
        <ele>460.128</ele>
        <time>2014-12-20T13:08:45Z</time>
      </trkpt>
      <trkpt lat="61.2110886" lon="14.5325154">
        <ele>458.686</ele>
        <time>2014-12-20T13:08:50Z</time>
      </trkpt>
      <trkpt lat="61.2110993" lon="14.532625">
        <ele>458.206</ele>
        <time>2014-12-20T13:08:51Z</time>
      </trkpt>
      <trkpt lat="61.2111506" lon="14.5331341">
        <ele>456.283</ele>
        <time>2014-12-20T13:08:56Z</time>
      </trkpt>
      <trkpt lat="61.2111419" lon="14.5335515">
        <ele>456.764</ele>
        <time>2014-12-20T13:09:01Z</time>
      </trkpt>
      <trkpt lat="61.2110616" lon="14.5336842">
        <ele>456.283</ele>
        <time>2014-12-20T13:09:04Z</time>
      </trkpt>
      <trkpt lat="61.2109545" lon="14.5336867">
        <ele>455.322</ele>
        <time>2014-12-20T13:09:07Z</time>
      </trkpt>
      <trkpt lat="61.2108835" lon="14.5335551">
        <ele>455.322</ele>
        <time>2014-12-20T13:09:10Z</time>
      </trkpt>
      <trkpt lat="61.2108234" lon="14.5332418">
        <ele>455.322</ele>
        <time>2014-12-20T13:09:14Z</time>
      </trkpt>
      <trkpt lat="61.2107992" lon="14.5329699">
        <ele>456.283</ele>
        <time>2014-12-20T13:09:17Z</time>
      </trkpt>
      <trkpt lat="61.210794" lon="14.5327918">
        <ele>457.244</ele>
        <time>2014-12-20T13:09:19Z</time>
      </trkpt>
      <trkpt lat="61.210761" lon="14.5324265">
        <ele>458.206</ele>
        <time>2014-12-20T13:09:23Z</time>
      </trkpt>
      <trkpt lat="61.2107525" lon="14.532216">
        <ele>458.686</ele>
        <time>2014-12-20T13:09:25Z</time>
      </trkpt>
      <trkpt lat="61.2107364" lon="14.5320152">
        <ele>459.167</ele>
        <time>2014-12-20T13:09:27Z</time>
      </trkpt>
      <trkpt lat="61.2107077" lon="14.5315531">
        <ele>460.128</ele>
        <time>2014-12-20T13:09:32Z</time>
      </trkpt>
      <trkpt lat="61.2106111" lon="14.531323">
        <ele>460.128</ele>
        <time>2014-12-20T13:09:36Z</time>
      </trkpt>
      <trkpt lat="61.2104966" lon="14.5313066">
        <ele>460.609</ele>
        <time>2014-12-20T13:09:40Z</time>
      </trkpt>
      <trkpt lat="61.2104074" lon="14.5315364">
        <ele>462.531</ele>
        <time>2014-12-20T13:09:45Z</time>
      </trkpt>
      <trkpt lat="61.2104111" lon="14.5317573">
        <ele>463.012</ele>
        <time>2014-12-20T13:09:49Z</time>
      </trkpt>
      <trkpt lat="61.2104214" lon="14.5318803">
        <ele>463.012</ele>
        <time>2014-12-20T13:09:51Z</time>
      </trkpt>
      <trkpt lat="61.2104417" lon="14.5322123">
        <ele>463.493</ele>
        <time>2014-12-20T13:09:56Z</time>
      </trkpt>
      <trkpt lat="61.210467" lon="14.5324214">
        <ele>463.973</ele>
        <time>2014-12-20T13:10:00Z</time>
      </trkpt>
      <trkpt lat="61.2104855" lon="14.5325232">
        <ele>463.973</ele>
        <time>2014-12-20T13:10:03Z</time>
      </trkpt>
      <trkpt lat="61.2104857" lon="14.5325527">
        <ele>463.973</ele>
        <time>2014-12-20T13:10:04Z</time>
      </trkpt>
      <trkpt lat="61.2104824" lon="14.532685">
        <ele>463.493</ele>
        <time>2014-12-20T13:10:19Z</time>
      </trkpt>
      <trkpt lat="61.2104825" lon="14.5327269">
        <ele>463.493</ele>
        <time>2014-12-20T13:10:20Z</time>
      </trkpt>
      <trkpt lat="61.2104982" lon="14.532856">
        <ele>463.012</ele>
        <time>2014-12-20T13:10:22Z</time>
      </trkpt>
      <trkpt lat="61.2105376" lon="14.5331827">
        <ele>462.531</ele>
        <time>2014-12-20T13:10:27Z</time>
      </trkpt>
      <trkpt lat="61.2105665" lon="14.5335142">
        <ele>463.012</ele>
        <time>2014-12-20T13:10:32Z</time>
      </trkpt>
      <trkpt lat="61.2105892" lon="14.5337811">
        <ele>462.051</ele>
        <time>2014-12-20T13:10:36Z</time>
      </trkpt>
      <trkpt lat="61.2106359" lon="14.5344301">
        <ele>460.609</ele>
        <time>2014-12-20T13:10:44Z</time>
      </trkpt>
      <trkpt lat="61.2106835" lon="14.5351422">
        <ele>458.686</ele>
        <time>2014-12-20T13:10:54Z</time>
      </trkpt>
      <trkpt lat="61.2107255" lon="14.5354827">
        <ele>458.686</ele>
        <time>2014-12-20T13:11:00Z</time>
      </trkpt>
      <trkpt lat="61.2107359" lon="14.5355185">
        <ele>458.686</ele>
        <time>2014-12-20T13:11:02Z</time>
      </trkpt>
      <trkpt lat="61.2107369" lon="14.5355273">
        <ele>459.167</ele>
        <time>2014-12-20T13:11:03Z</time>
      </trkpt>
    </trkseg>
  </trk>
</gpx>